Observation data for Caprock Canyons on 02/24/2021      Previous  Date  Next       Current Mesonet Observations  Soil Data  Daily Summary Page  Observations in Plain Language
KQU1 240600Z 30022G29KT 16/M11 A2978 RMK A01 T01571107  RH  015%=      5-min Rain = 0
KQU1 240601Z 29022G29KT 16/M11 A2978 RMK A01 T01571107  RH  015%=      5-min Rain = 0
KQU1 240602Z 29020G25KT 16/M11 A2978 RMK A01 T01571106  RH  015%=      5-min Rain = 0
KQU1 240603Z 29022KT 16/M11 A2978 RMK A01 T01561107  RH  015%=      5-min Rain = 0
KQU1 240604Z 29025KT 16/M11 A2978 RMK A01 T01561106  RH  015%=      5-min Rain = 0
KQU1 240605Z 30021G29KT 16/M11 A2978 RMK A01 T01561105  RH  016%=      5-min Rain = 0
KQU1 240606Z 29024G29KT 16/M11 A2977 RMK A01 T01561107  RH  015%=      5-min Rain = 0
KQU1 240607Z 30022KT 16/M11 A2977 RMK A01 T01561105  RH  016%=      5-min Rain = 0
KQU1 240608Z 30023G29KT 16/M11 A2977 RMK A01 T01551105  RH  016%=      5-min Rain = 0
KQU1 240609Z 30021G26KT 15/M11 A2978 RMK A01 T01541105  RH  016%=      5-min Rain = 0
KQU1 240610Z 30022G27KT 16/M11 A2977 RMK A01 T01551105  RH  016%=      5-min Rain = 0
KQU1 240611Z 30021G26KT 15/M11 A2978 RMK A01 T01541105  RH  016%=      5-min Rain = 0
KQU1 240612Z 30022G30KT 16/M11 A2978 RMK A01 T01551105  RH  016%=      5-min Rain = 0
KQU1 240613Z 30021KT 16/M11 A2978 RMK A01 T01551105  RH  016%=      5-min Rain = 0
KQU1 240614Z 30019KT 16/M10 A2978 RMK A01 T01551104  RH  016%=      5-min Rain = 0
KQU1 240615Z 30021G32KT 15/M10 A2978 RMK A01 T01541104  RH  016%=      5-min Rain = 0
KQU1 240616Z 30020KT 15/M10 A2978 RMK A01 T01541104  RH  016%=      5-min Rain = 0
KQU1 240617Z 30022KT 16/M11 A2978 RMK A01 T01551105  RH  016%=      5-min Rain = 0
KQU1 240618Z 30022KT 16/M11 A2978 RMK A01 T01561106  RH  015%=      5-min Rain = 0
KQU1 240619Z 30022G32KT 16/M11 A2978 RMK A01 T01571106  RH  015%=      5-min Rain = 0
KQU1 240620Z 30022G27KT 16/M11 A2978 RMK A01 T01591108  RH  015%=      5-min Rain = 0
KQU1 240621Z 30022G30KT 16/M11 A2978 RMK A01 T01601107  RH  015%=      5-min Rain = 0
KQU1 240622Z 31023KT 16/M11 A2978 RMK A01 T01601107  RH  015%=      5-min Rain = 0
KQU1 240623Z 30023KT 16/M11 A2978 RMK A01 T01611108  RH  015%=      5-min Rain = 0
KQU1 240624Z 30022G28KT 16/M11 A2978 RMK A01 T01611108  RH  015%=      5-min Rain = 0
KQU1 240625Z 30021G27KT 16/M11 A2978 RMK A01 T01621108  RH  015%=      5-min Rain = 0
KQU1 240626Z 30023G31KT 16/M11 A2978 RMK A01 T01621108  RH  015%=      5-min Rain = 0
KQU1 240627Z 30022KT 16/M11 A2978 RMK A01 T01621108  RH  015%=      5-min Rain = 0
KQU1 240628Z 30022G27KT 16/M11 A2978 RMK A01 T01621108  RH  015%=      5-min Rain = 0
KQU1 240629Z 30023KT 16/M11 A2978 RMK A01 T01621108  RH  015%=      5-min Rain = 0
KQU1 240630Z 30025KT 16/M11 A2978 RMK A01 T01641108  RH  014%=      5-min Rain = 0
KQU1 240631Z 30021KT 16/M11 A2978 RMK A01 T01621106  RH  015%=      5-min Rain = 0
KQU1 240632Z 30025KT 16/M11 A2978 RMK A01 T01621107  RH  015%=      5-min Rain = 0
KQU1 240633Z 30022G29KT 16/M11 A2978 RMK A01 T01621107  RH  015%=      5-min Rain = 0
KQU1 240634Z 30022KT 16/M11 A2978 RMK A01 T01611106  RH  015%=      5-min Rain = 0
KQU1 240635Z 30025G30KT 16/M11 A2978 RMK A01 T01611107  RH  015%=      5-min Rain = 0
KQU1 240636Z 30021G26KT 16/M11 A2979 RMK A01 T01621105  RH  015%=      5-min Rain = 0
KQU1 240637Z 30021G27KT 16/M11 A2979 RMK A01 T01601105  RH  015%=      5-min Rain = 0
KQU1 240638Z 30025KT 16/M11 A2979 RMK A01 T01611106  RH  015%=      5-min Rain = 0
KQU1 240639Z 30023KT 16/M11 A2979 RMK A01 T01631107  RH  015%=      5-min Rain = 0
KQU1 240640Z 30021KT 16/M11 A2979 RMK A01 T01631106  RH  015%=      5-min Rain = 0
KQU1 240641Z 30021KT 16/M11 A2979 RMK A01 T01621106  RH  015%=      5-min Rain = 0
KQU1 240642Z 30021G29KT 16/M10 A2979 RMK A01 T01611104  RH  015%=      5-min Rain = 0
KQU1 240643Z 30022KT 16/M11 A2979 RMK A01 T01621106  RH  015%=      5-min Rain = 0
KQU1 240644Z 30021G26KT 16/M10 A2979 RMK A01 T01621104  RH  015%=      5-min Rain = 0
KQU1 240645Z 30022G28KT 16/M11 A2979 RMK A01 T01621105  RH  015%=      5-min Rain = 0
KQU1 240646Z 30022G28KT 16/M11 A2979 RMK A01 T01631105  RH  015%=      5-min Rain = 0
KQU1 240647Z 31020G26KT 16/M10 A2979 RMK A01 T01631104  RH  015%=      5-min Rain = 0
KQU1 240648Z 30018KT 16/M10 A2979 RMK A01 T01621104  RH  015%=      5-min Rain = 0
KQU1 240649Z 30018KT 16/M10 A2979 RMK A01 T01601102  RH  015%=      5-min Rain = 0
KQU1 240650Z 31019KT 16/M10 A2979 RMK A01 T01591102  RH  016%=      5-min Rain = 0
KQU1 240651Z 31019KT 16/M10 A2979 RMK A01 T01581101  RH  016%=      5-min Rain = 0
KQU1 240652Z 31017KT 16/M10 A2979 RMK A01 T01571101  RH  016%=      5-min Rain = 0
KQU1 240653Z 31019G27KT 16/M10 A298 RMK A01 T01561100  RH  016%=      5-min Rain = 0
KQU1 240654Z 31019G25KT 16/M10 A298 RMK A01 T01571100  RH  016%=      5-min Rain = 0
KQU1 240655Z 31020KT 16/M10 A298 RMK A01 T01571100  RH  016%=      5-min Rain = 0
KQU1 240656Z 31020KT 16/M10 A298 RMK A01 T01571100  RH  016%=      5-min Rain = 0
KQU1 240657Z 31018KT 16/M10 A298 RMK A01 T01571100  RH  016%=      5-min Rain = 0
KQU1 240658Z 31021KT 16/M10 A298 RMK A01 T01571100  RH  016%=      5-min Rain = 0
KQU1 240659Z 31018KT 16/M10 A298 RMK A01 T01561099  RH  016%=      5-min Rain = 0
KQU1 240700Z 31022KT 16/M10 A298 RMK A01 T01551099  RH  016%=      5-min Rain = 0
KQU1 240701Z 32022KT 15/M10 A298 RMK A01 T01541098  RH  017%=      5-min Rain = 0
KQU1 240702Z 32019KT 15/M10 A2981 RMK A01 T01521097  RH  017%=      5-min Rain = 0
KQU1 240703Z 32018G24KT 15/M09 A2981 RMK A01 T01501094  RH  018%=      5-min Rain = 0
KQU1 240704Z 33019G24KT 15/M09 A2982 RMK A01 T01491094  RH  018%=      5-min Rain = 0
KQU1 240705Z 33019KT 15/M09 A2982 RMK A01 T01461093  RH  018%=      5-min Rain = 0
KQU1 240706Z 33017KT 14/M09 A2982 RMK A01 T01441092  RH  019%=      5-min Rain = 0
KQU1 240707Z 32021G26KT 14/M09 A2982 RMK A01 T01431091  RH  019%=      5-min Rain = 0
KQU1 240708Z 32021G27KT 14/M09 A2982 RMK A01 T01441092  RH  019%=      5-min Rain = 0
KQU1 240709Z 32022KT 15/M09 A2982 RMK A01 T01451092  RH  019%=      5-min Rain = 0
KQU1 240710Z 32021G26KT 15/M09 A2982 RMK A01 T01461092  RH  018%=      5-min Rain = 0
KQU1 240711Z 32022KT 15/M09 A2982 RMK A01 T01481092  RH  018%=      5-min Rain = 0
KQU1 240712Z 32020KT 15/M09 A2983 RMK A01 T01481091  RH  018%=      5-min Rain = 0
KQU1 240713Z 33020KT 15/M09 A2983 RMK A01 T01471090  RH  019%=      5-min Rain = 0
KQU1 240714Z 33022G29KT 15/M09 A2983 RMK A01 T01471091  RH  019%=      5-min Rain = 0
KQU1 240715Z 33021G28KT 15/M09 A2983 RMK A01 T01451089  RH  019%=      5-min Rain = 0
KQU1 240716Z 33022G29KT 15/M09 A2983 RMK A01 T01461089  RH  019%=      5-min Rain = 0
KQU1 240717Z 33020KT 15/M09 A2983 RMK A01 T01451088  RH  019%=      5-min Rain = 0
KQU1 240718Z 33020G27KT 14/M09 A2983 RMK A01 T01441088  RH  019%=      5-min Rain = 0
KQU1 240719Z 33023KT 14/M09 A2983 RMK A01 T01431087  RH  020%=      5-min Rain = 0
KQU1 240720Z 33022KT 14/M09 A2983 RMK A01 T01431086  RH  020%=      5-min Rain = 0
KQU1 240721Z 33021G27KT 14/M08 A2983 RMK A01 T01421084  RH  020%=      5-min Rain = 0
KQU1 240722Z 34021KT 14/M08 A2984 RMK A01 T01421083  RH  020%=      5-min Rain = 0
KQU1 240723Z 34020G25KT 14/M08 A2984 RMK A01 T01411082  RH  021%=      5-min Rain = 0
KQU1 240724Z 34019G25KT 14/M08 A2984 RMK A01 T01401080  RH  021%=      5-min Rain = 0
KQU1 240725Z 33021G26KT 14/M08 A2984 RMK A01 T01391077  RH  022%=      5-min Rain = 0
KQU1 240726Z 33019G25KT 14/M08 A2984 RMK A01 T01381076  RH  022%=      5-min Rain = 0
KQU1 240727Z 34018KT 14/M07 A2985 RMK A01 T01381074  RH  022%=      5-min Rain = 0
KQU1 240728Z 35020G25KT 14/M07 A2985 RMK A01 T01381072  RH  023%=      5-min Rain = 0
KQU1 240729Z 35020KT 14/M07 A2985 RMK A01 T01391071  RH  023%=      5-min Rain = 0
KQU1 240730Z 35021KT 14/M07 A2985 RMK A01 T01401069  RH  023%=      5-min Rain = 0
KQU1 240731Z 35020G25KT 14/M07 A2986 RMK A01 T01401068  RH  023%=      5-min Rain = 0
KQU1 240732Z 35021KT 14/M07 A2986 RMK A01 T01411068  RH  023%=      5-min Rain = 0
KQU1 240733Z 01018G26KT 14/M07 A2986 RMK A01 T01411068  RH  023%=      5-min Rain = 0
KQU1 240734Z 36018G23KT 14/M07 A2986 RMK A01 T01411068  RH  023%=      5-min Rain = 0
KQU1 240735Z 00013KT 14/M07 A2986 RMK A01 T01411066  RH  023%=      5-min Rain = 0
KQU1 240736Z 00015G22KT 14/M07 A2986 RMK A01 T01411065  RH  024%=      5-min Rain = 0
KQU1 240737Z 36013G18KT 14/M06 A2986 RMK A01 T01401064  RH  024%=      5-min Rain = 0
KQU1 240738Z 36013G18KT 14/M06 A2986 RMK A01 T01391063  RH  024%=      5-min Rain = 0
KQU1 240739Z 36020G26KT 14/M06 A2986 RMK A01 T01391061  RH  024%=      5-min Rain = 0
KQU1 240740Z 00021G33KT 14/M06 A2986 RMK A01 T01391060  RH  025%=      5-min Rain = 0
KQU1 240741Z 01021G28KT 14/M06 A2987 RMK A01 T01381058  RH  025%=      5-min Rain = 0
KQU1 240742Z 01020G27KT 14/M06 A2987 RMK A01 T01381056  RH  026%=      5-min Rain = 0
KQU1 240743Z 00018G25KT 14/M06 A2987 RMK A01 T01371056  RH  026%=      5-min Rain = 0
KQU1 240744Z 35024G31KT 14/M06 A2987 RMK A01 T01361055  RH  026%=      5-min Rain = 0
KQU1 240745Z 36021G27KT 13/M05 A2988 RMK A01 T01341054  RH  027%=      5-min Rain = 0
KQU1 240746Z 35022KT 13/M05 A2988 RMK A01 T01331053  RH  027%=      5-min Rain = 0
KQU1 240747Z 00018G24KT 13/M05 A2988 RMK A01 T01321053  RH  027%=      5-min Rain = 0
KQU1 240748Z 01021G30KT 13/M05 A2988 RMK A01 T01311051  RH  028%=      5-min Rain = 0
KQU1 240749Z 01017G23KT 13/M05 A2988 RMK A01 T01301050  RH  028%=      5-min Rain = 0
KQU1 240750Z 00019G25KT 13/M05 A2988 RMK A01 T01291051  RH  028%=      5-min Rain = 0
KQU1 240751Z 01020G27KT 13/M05 A2988 RMK A01 T01271050  RH  029%=      5-min Rain = 0
KQU1 240752Z 36024G30KT 13/M05 A2988 RMK A01 T01261050  RH  029%=      5-min Rain = 0
KQU1 240753Z 01017G22KT 13/M05 A2989 RMK A01 T01261049  RH  029%=      5-min Rain = 0
KQU1 240754Z 02016G22KT 13/M05 A2989 RMK A01 T01251047  RH  030%=      5-min Rain = 0
KQU1 240755Z 02016KT 12/M05 A2989 RMK A01 T01231047  RH  030%=      5-min Rain = 0
KQU1 240756Z 03017G25KT 12/M05 A2989 RMK A01 T01221047  RH  030%=      5-min Rain = 0
KQU1 240757Z 03021KT 12/M05 A2989 RMK A01 T01211046  RH  031%=      5-min Rain = 0
KQU1 240758Z 02020G28KT 12/M05 A299 RMK A01 T01201046  RH  031%=      5-min Rain = 0
KQU1 240759Z 02024G30KT 12/M05 A299 RMK A01 T01201047  RH  031%=      5-min Rain = 0
KQU1 240800Z 02022G32KT 12/M05 A299 RMK A01 T01191046  RH  031%=      5-min Rain = 0
KQU1 240801Z 01022G29KT 12/M05 A299 RMK A01 T01181047  RH  031%=      5-min Rain = 0
KQU1 240802Z 02023KT 12/M05 A299 RMK A01 T01181047  RH  031%=      5-min Rain = 0
KQU1 240803Z 02022G31KT 12/M05 A2991 RMK A01 T01171047  RH  031%=      5-min Rain = 0
KQU1 240804Z 01022G29KT 12/M05 A2991 RMK A01 T01171047  RH  032%=      5-min Rain = 0
KQU1 240805Z 01019G27KT 12/M05 A2991 RMK A01 T01161046  RH  032%=      5-min Rain = 0
KQU1 240806Z 02023G29KT 12/M05 A2991 RMK A01 T01151046  RH  032%=      5-min Rain = 0
KQU1 240807Z 02021G28KT 11/M05 A2991 RMK A01 T01141045  RH  032%=      5-min Rain = 0
KQU1 240808Z 02020G26KT 11/M05 A2991 RMK A01 T01141046  RH  032%=      5-min Rain = 0
KQU1 240809Z 01023G29KT 11/M05 A2991 RMK A01 T01131046  RH  032%=      5-min Rain = 0
KQU1 240810Z 02019G25KT 11/M05 A2991 RMK A01 T01131046  RH  033%=      5-min Rain = 0
KQU1 240811Z 02018G26KT 11/M05 A2992 RMK A01 T01121045  RH  033%=      5-min Rain = 0
KQU1 240812Z 02023G32KT 11/M05 A2992 RMK A01 T01121046  RH  033%=      5-min Rain = 0
KQU1 240813Z 02024G29KT 11/M05 A2992 RMK A01 T01121046  RH  033%=      5-min Rain = 0
KQU1 240814Z 02019G25KT 11/M05 A2992 RMK A01 T01111046  RH  033%=      5-min Rain = 0
KQU1 240815Z 02021KT 11/M05 A2992 RMK A01 T01111045  RH  033%=      5-min Rain = 0
KQU1 240816Z 02020KT 11/M05 A2992 RMK A01 T01101045  RH  033%=      5-min Rain = 0
KQU1 240817Z 02022G30KT 11/M05 A2992 RMK A01 T01091045  RH  033%=      5-min Rain = 0
KQU1 240818Z 01023G30KT 11/M05 A2992 RMK A01 T01101047  RH  033%=      5-min Rain = 0
KQU1 240819Z 02022G27KT 11/M05 A2992 RMK A01 T01101047  RH  033%=      5-min Rain = 0
KQU1 240820Z 02022G27KT 11/M05 A2992 RMK A01 T01091046  RH  033%=      5-min Rain = 0
KQU1 240821Z 02022G31KT 11/M05 A2992 RMK A01 T01091046  RH  033%=      5-min Rain = 0
KQU1 240822Z 01026G31KT 11/M05 A2992 RMK A01 T01091047  RH  033%=      5-min Rain = 0
KQU1 240823Z 01021G27KT 11/M05 A2993 RMK A01 T01091047  RH  033%=      5-min Rain = 0
KQU1 240824Z 02017KT 11/M05 A2993 RMK A01 T01081045  RH  034%=      5-min Rain = 0
KQU1 240825Z 02022G32KT 11/M05 A2993 RMK A01 T01071046  RH  034%=      5-min Rain = 0
KQU1 240826Z 02022G29KT 11/M05 A2993 RMK A01 T01071046  RH  034%=      5-min Rain = 0
KQU1 240827Z 02021G27KT 11/M05 A2993 RMK A01 T01071046  RH  034%=      5-min Rain = 0
KQU1 240828Z 03022G31KT 11/M05 A2992 RMK A01 T01061046  RH  034%=      5-min Rain = 0
KQU1 240829Z 02022G31KT 11/M05 A2993 RMK A01 T01061046  RH  034%=      5-min Rain = 0
KQU1 240830Z 02029KT 11/M05 A2992 RMK A01 T01061047  RH  034%=      5-min Rain = 0
KQU1 240831Z 02021G28KT 11/M05 A2993 RMK A01 T01061047  RH  034%=      5-min Rain = 0
KQU1 240832Z 02020G28KT 11/M05 A2993 RMK A01 T01061046  RH  034%=      5-min Rain = 0
KQU1 240833Z 02020G25KT 11/M05 A2993 RMK A01 T01051046  RH  034%=      5-min Rain = 0
KQU1 240834Z 02020G27KT 11/M05 A2993 RMK A01 T01051046  RH  034%=      5-min Rain = 0
KQU1 240835Z 02024G30KT 11/M05 A2993 RMK A01 T01051047  RH  034%=      5-min Rain = 0
KQU1 240836Z 03020G27KT 11/M05 A2993 RMK A01 T01051046  RH  034%=      5-min Rain = 0
KQU1 240837Z 02024KT 10/M05 A2993 RMK A01 T01041046  RH  034%=      5-min Rain = 0
KQU1 240838Z 02021G26KT 10/M05 A2993 RMK A01 T01041046  RH  034%=      5-min Rain = 0
KQU1 240839Z 02022G29KT 10/M05 A2993 RMK A01 T01041046  RH  035%=      5-min Rain = 0
KQU1 240840Z 03027G35KT 10/M05 A2993 RMK A01 T01041047  RH  034%=      5-min Rain = 0
KQU1 240841Z 03021G29KT 10/M05 A2993 RMK A01 T01041046  RH  034%=      5-min Rain = 0
KQU1 240842Z 03023KT 10/M05 A2993 RMK A01 T01041046  RH  035%=      5-min Rain = 0
KQU1 240843Z 03022G29KT 10/M05 A2993 RMK A01 T01031046  RH  035%=      5-min Rain = 0
KQU1 240844Z 03025G32KT 10/M05 A2993 RMK A01 T01031047  RH  034%=      5-min Rain = 0
KQU1 240845Z 03020G29KT 10/M05 A2993 RMK A01 T01031046  RH  035%=      5-min Rain = 0
KQU1 240846Z 02023G28KT 10/M05 A2993 RMK A01 T01031047  RH  034%=      5-min Rain = 0
KQU1 240847Z 03020G26KT 10/M05 A2993 RMK A01 T01031046  RH  035%=      5-min Rain = 0
KQU1 240848Z 02018G25KT 10/M05 A2993 RMK A01 T01021046  RH  035%=      5-min Rain = 0
KQU1 240849Z 02020G27KT 10/M05 A2993 RMK A01 T01021046  RH  035%=      5-min Rain = 0
KQU1 240850Z 02017G24KT 10/M05 A2994 RMK A01 T01011047  RH  035%=      5-min Rain = 0
KQU1 240851Z 03021G26KT 10/M05 A2994 RMK A01 T01011047  RH  035%=      5-min Rain = 0
KQU1 240852Z 02024G32KT 10/M05 A2994 RMK A01 T01011047  RH  035%=      5-min Rain = 0
KQU1 240853Z 02019G25KT 10/M05 A2994 RMK A01 T01011046  RH  035%=      5-min Rain = 0
KQU1 240854Z 02020G28KT 10/M05 A2994 RMK A01 T01011047  RH  035%=      5-min Rain = 0
KQU1 240855Z 02020G26KT 10/M05 A2994 RMK A01 T01011048  RH  035%=      5-min Rain = 0
KQU1 240856Z 02023G29KT 10/M05 A2994 RMK A01 T01011048  RH  035%=      5-min Rain = 0
KQU1 240857Z 02021G27KT 10/M05 A2994 RMK A01 T01011048  RH  035%=      5-min Rain = 0
KQU1 240858Z 02023G29KT 10/M05 A2994 RMK A01 T01011048  RH  035%=      5-min Rain = 0
KQU1 240859Z 02022G28KT 10/M05 A2994 RMK A01 T01001047  RH  035%=      5-min Rain = 0
KQU1 240900Z 01022G30KT 10/M05 A2994 RMK A01 T01001049  RH  035%=      5-min Rain = 0
KQU1 240901Z 02021G27KT 10/M05 A2995 RMK A01 T01001048  RH  035%=      5-min Rain = 0
KQU1 240902Z 02022G30KT 10/M05 A2995 RMK A01 T01001048  RH  035%=      5-min Rain = 0
KQU1 240903Z 02023G30KT 10/M05 A2995 RMK A01 T01001048  RH  035%=      5-min Rain = 0
KQU1 240904Z 02024G29KT 10/M05 A2995 RMK A01 T01001049  RH  035%=      5-min Rain = 0
KQU1 240905Z 02021G26KT 10/M05 A2995 RMK A01 T01001049  RH  035%=      5-min Rain = 0
KQU1 240906Z 02022KT 10/M05 A2995 RMK A01 T00991049  RH  035%=      5-min Rain = 0
KQU1 240907Z 02023G29KT 10/M05 A2995 RMK A01 T00991049  RH  035%=      5-min Rain = 0
KQU1 240908Z 02024KT 10/M05 A2995 RMK A01 T00991049  RH  035%=      5-min Rain = 0
KQU1 240909Z 02025G32KT 10/M05 A2995 RMK A01 T00991048  RH  035%=      5-min Rain = 0
KQU1 240910Z 02020G25KT 10/M05 A2995 RMK A01 T00981048  RH  035%=      5-min Rain = 0
KQU1 240911Z 02028G34KT 10/M05 A2995 RMK A01 T00981050  RH  035%=      5-min Rain = 0
KQU1 240912Z 02021G27KT 10/M05 A2995 RMK A01 T00991049  RH  035%=      5-min Rain = 0
KQU1 240913Z 03023G29KT 10/M05 A2995 RMK A01 T00981048  RH  035%=      5-min Rain = 0
KQU1 240914Z 02022G28KT 10/M05 A2995 RMK A01 T00981049  RH  035%=      5-min Rain = 0
KQU1 240915Z 02026G31KT 10/M05 A2995 RMK A01 T00981050  RH  035%=      5-min Rain = 0
KQU1 240916Z 02020G27KT 10/M05 A2996 RMK A01 T00981050  RH  035%=      5-min Rain = 0
KQU1 240917Z 02019G29KT 10/M05 A2996 RMK A01 T00971049  RH  035%=      5-min Rain = 0
KQU1 240918Z 01024G29KT 10/M05 A2996 RMK A01 T00971051  RH  035%=      5-min Rain = 0
KQU1 240919Z 01024G29KT 10/M05 A2996 RMK A01 T00981052  RH  034%=      5-min Rain = 0
KQU1 240920Z 01020G25KT 10/M05 A2996 RMK A01 T00971051  RH  035%=      5-min Rain = 0
KQU1 240921Z 02018G25KT 10/M05 A2996 RMK A01 T00971050  RH  035%=      5-min Rain = 0
KQU1 240922Z 02022G31KT 10/M05 A2996 RMK A01 T00961050  RH  035%=      5-min Rain = 0
KQU1 240923Z 01019G26KT 10/M05 A2996 RMK A01 T00961050  RH  035%=      5-min Rain = 0
KQU1 240924Z 02015G24KT 10/M05 A2996 RMK A01 T00961049  RH  036%=      5-min Rain = 0
KQU1 240925Z 01023G32KT 10/M05 A2996 RMK A01 T00951051  RH  035%=      5-min Rain = 0
KQU1 240926Z 02019KT 10/M05 A2996 RMK A01 T00961051  RH  035%=      5-min Rain = 0
KQU1 240927Z 02020G27KT 10/M05 A2996 RMK A01 T00961052  RH  035%=      5-min Rain = 0
KQU1 240928Z 01018KT 10/M05 A2996 RMK A01 T00961052  RH  035%=      5-min Rain = 0
KQU1 240929Z 02018G23KT 10/M05 A2996 RMK A01 T00951051  RH  035%=      5-min Rain = 0
KQU1 240930Z 02023G29KT 10/M05 A2996 RMK A01 T00951051  RH  035%=      5-min Rain = 0
KQU1 240931Z 02021G28KT 10/M05 A2996 RMK A01 T00951052  RH  035%=      5-min Rain = 0
KQU1 240932Z 01017G22KT 10/M05 A2996 RMK A01 T00951052  RH  035%=      5-min Rain = 0
KQU1 240933Z 01022G32KT 10/M05 A2996 RMK A01 T00951053  RH  035%=      5-min Rain = 0
KQU1 240934Z 02019G27KT 10/M05 A2996 RMK A01 T00951053  RH  035%=      5-min Rain = 0
KQU1 240935Z 02022G28KT 10/M05 A2996 RMK A01 T00951052  RH  035%=      5-min Rain = 0
KQU1 240936Z 01021G27KT 10/M05 A2996 RMK A01 T00951054  RH  035%=      5-min Rain = 0
KQU1 240937Z 02025KT 10/M05 A2996 RMK A01 T00951054  RH  035%=      5-min Rain = 0
KQU1 240938Z 02022G29KT 10/M05 A2997 RMK A01 T00951053  RH  035%=      5-min Rain = 0
KQU1 240939Z 01021KT 09/M05 A2997 RMK A01 T00941053  RH  035%=      5-min Rain = 0
KQU1 240940Z 02020G27KT 09/M05 A2997 RMK A01 T00941054  RH  035%=      5-min Rain = 0
KQU1 240941Z 02018G24KT 09/M05 A2997 RMK A01 T00941053  RH  035%=      5-min Rain = 0
KQU1 240942Z 02022G27KT 09/M05 A2997 RMK A01 T00941053  RH  035%=      5-min Rain = 0
KQU1 240943Z 01019G27KT 09/M05 A2997 RMK A01 T00941053  RH  035%=      5-min Rain = 0
KQU1 240944Z 02024G32KT 09/M05 A2997 RMK A01 T00941054  RH  035%=      5-min Rain = 0
KQU1 240945Z 01020G25KT 09/M05 A2997 RMK A01 T00941054  RH  035%=      5-min Rain = 0
KQU1 240946Z 02022G28KT 09/M05 A2997 RMK A01 T00941053  RH  035%=      5-min Rain = 0
KQU1 240947Z 02021G26KT 09/M06 A2997 RMK A01 T00941055  RH  035%=      5-min Rain = 0
KQU1 240948Z 01019G27KT 09/M05 A2997 RMK A01 T00941054  RH  035%=      5-min Rain = 0
KQU1 240949Z 01016KT 09/M05 A2997 RMK A01 T00931053  RH  035%=      5-min Rain = 0
KQU1 240950Z 02024G30KT 09/M05 A2997 RMK A01 T00931054  RH  035%=      5-min Rain = 0
KQU1 240951Z 01018G26KT 09/M05 A2997 RMK A01 T00931054  RH  035%=      5-min Rain = 0
KQU1 240952Z 02021G29KT 09/M05 A2997 RMK A01 T00931054  RH  035%=      5-min Rain = 0
KQU1 240953Z 02020G29KT 09/M05 A2997 RMK A01 T00931053  RH  035%=      5-min Rain = 0
KQU1 240954Z 01018G27KT 09/M05 A2997 RMK A01 T00931053  RH  035%=      5-min Rain = 0
KQU1 240955Z 02019G24KT 09/M05 A2997 RMK A01 T00921054  RH  035%=      5-min Rain = 0
KQU1 240956Z 01017G28KT 09/M05 A2997 RMK A01 T00921052  RH  036%=      5-min Rain = 0
KQU1 240957Z 02019G26KT 09/M05 A2997 RMK A01 T00911053  RH  035%=      5-min Rain = 0
KQU1 240958Z 01020G25KT 09/M05 A2997 RMK A01 T00911054  RH  036%=      5-min Rain = 0
KQU1 240959Z 02017G22KT 09/M05 A2997 RMK A01 T00911054  RH  035%=      5-min Rain = 0
KQU1 241000Z 01020G28KT 09/M05 A2997 RMK A01 T00911054  RH  035%=      5-min Rain = 0
KQU1 241001Z 02020G27KT 09/M05 A2997 RMK A01 T00911054  RH  035%=      5-min Rain = 0
KQU1 241002Z 01024G30KT 09/M05 A2997 RMK A01 T00911054  RH  035%=      5-min Rain = 0
KQU1 241003Z 01018KT 09/M05 A2997 RMK A01 T00911054  RH  035%=      5-min Rain = 0
KQU1 241004Z 01018G23KT 09/M06 A2997 RMK A01 T00911055  RH  035%=      5-min Rain = 0
KQU1 241005Z 02020G31KT 09/M05 A2997 RMK A01 T00911053  RH  036%=      5-min Rain = 0
KQU1 241006Z 02019G27KT 09/M05 A2997 RMK A01 T00911053  RH  036%=      5-min Rain = 0
KQU1 241007Z 01018G24KT 09/M05 A2997 RMK A01 T00901054  RH  036%=      5-min Rain = 0
KQU1 241008Z 01020G25KT 09/M05 A2997 RMK A01 T00911054  RH  036%=      5-min Rain = 0
KQU1 241009Z 02019G25KT 09/M05 A2998 RMK A01 T00901053  RH  036%=      5-min Rain = 0
KQU1 241010Z 01021G27KT 09/M05 A2998 RMK A01 T00901053  RH  036%=      5-min Rain = 0
KQU1 241011Z 01018G26KT 09/M05 A2998 RMK A01 T00911054  RH  035%=      5-min Rain = 0
KQU1 241012Z 01024G30KT 09/M05 A2998 RMK A01 T00911054  RH  036%=      5-min Rain = 0
KQU1 241013Z 02018KT 09/M05 A2998 RMK A01 T00911054  RH  036%=      5-min Rain = 0
KQU1 241014Z 02018G25KT 09/M05 A2998 RMK A01 T00901054  RH  036%=      5-min Rain = 0
KQU1 241015Z 02018G23KT 09/M05 A2998 RMK A01 T00901053  RH  036%=      5-min Rain = 0
KQU1 241016Z 02017G26KT 09/M05 A2998 RMK A01 T00901052  RH  036%=      5-min Rain = 0
KQU1 241017Z 01016G25KT 09/M05 A2999 RMK A01 T00891053  RH  036%=      5-min Rain = 0
KQU1 241018Z 02017G24KT 09/M05 A2999 RMK A01 T00891052  RH  036%=      5-min Rain = 0
KQU1 241019Z 01016G27KT 09/M05 A2999 RMK A01 T00881052  RH  037%=      5-min Rain = 0
KQU1 241020Z 01023G31KT 09/M05 A2999 RMK A01 T00891053  RH  036%=      5-min Rain = 0
KQU1 241021Z 02020G25KT 09/M05 A2999 RMK A01 T00891053  RH  036%=      5-min Rain = 0
KQU1 241022Z 01020G25KT 09/M05 A2999 RMK A01 T00891053  RH  036%=      5-min Rain = 0
KQU1 241023Z 02020G28KT 09/M05 A2999 RMK A01 T00891053  RH  036%=      5-min Rain = 0
KQU1 241024Z 02019G26KT 09/M05 A2999 RMK A01 T00891052  RH  037%=      5-min Rain = 0
KQU1 241025Z 02021KT 09/M05 A2999 RMK A01 T00891051  RH  037%=      5-min Rain = 0
KQU1 241026Z 02019G26KT 09/M05 A2999 RMK A01 T00891052  RH  037%=      5-min Rain = 0
KQU1 241027Z 02022G27KT 09/M05 A2999 RMK A01 T00881051  RH  037%=      5-min Rain = 0
KQU1 241028Z 02017KT 09/M05 A2999 RMK A01 T00881050  RH  037%=      5-min Rain = 0
KQU1 241029Z 02021G28KT 09/M05 A2999 RMK A01 T00881051  RH  037%=      5-min Rain = 0
KQU1 241030Z 02025G30KT 09/M05 A2999 RMK A01 T00881052  RH  037%=      5-min Rain = 0
KQU1 241031Z 02017G23KT 09/M05 A2999 RMK A01 T00881051  RH  037%=      5-min Rain = 0
KQU1 241032Z 01019G25KT 09/M05 A2999 RMK A01 T00881051  RH  037%=      5-min Rain = 0
KQU1 241033Z 02016G21KT 09/M05 A30 RMK A01 T00871051  RH  037%=      5-min Rain = 0
KQU1 241034Z 02021KT 09/M05 A30 RMK A01 T00871052  RH  037%=      5-min Rain = 0
KQU1 241035Z 01022KT 09/M05 A30 RMK A01 T00871052  RH  037%=      5-min Rain = 0
KQU1 241036Z 02017G22KT 09/M05 A30 RMK A01 T00871050  RH  037%=      5-min Rain = 0
KQU1 241037Z 01017G23KT 09/M05 A30 RMK A01 T00871050  RH  038%=      5-min Rain = 0
KQU1 241038Z 01020G26KT 09/M05 A30 RMK A01 T00871050  RH  038%=      5-min Rain = 0
KQU1 241039Z 02017G22KT 09/M05 A30 RMK A01 T00861049  RH  038%=      5-min Rain = 0
KQU1 241040Z 02017G24KT 09/M05 A30 RMK A01 T00861049  RH  038%=      5-min Rain = 0
KQU1 241041Z 01021G26KT 09/M05 A30 RMK A01 T00861050  RH  038%=      5-min Rain = 0
KQU1 241042Z 01016G21KT 09/M05 A30 RMK A01 T00861050  RH  038%=      5-min Rain = 0
KQU1 241043Z 03019G26KT 09/M05 A30 RMK A01 T00851049  RH  038%=      5-min Rain = 0
KQU1 241044Z 01015G21KT 09/M05 A30 RMK A01 T00851048  RH  038%=      5-min Rain = 0
KQU1 241045Z 02014KT 09/M05 A30 RMK A01 T00851048  RH  039%=      5-min Rain = 0
KQU1 241046Z 02017G22KT 08/M05 A30 RMK A01 T00841049  RH  039%=      5-min Rain = 0
KQU1 241047Z 02020G25KT 08/M05 A30 RMK A01 T00841048  RH  039%=      5-min Rain = 0
KQU1 241048Z 01018G23KT 08/M05 A30 RMK A01 T00841049  RH  039%=      5-min Rain = 0
KQU1 241049Z 01017KT 08/M05 A30 RMK A01 T00841049  RH  039%=      5-min Rain = 0
KQU1 241050Z 01019G26KT 08/M05 A30 RMK A01 T00841048  RH  039%=      5-min Rain = 0
KQU1 241051Z 01017KT 08/M05 A30 RMK A01 T00841047  RH  039%=      5-min Rain = 0
KQU1 241052Z 01017G24KT 08/M05 A3001 RMK A01 T00841048  RH  039%=      5-min Rain = 0
KQU1 241053Z 02017G26KT 08/M05 A3001 RMK A01 T00831047  RH  039%=      5-min Rain = 0
KQU1 241054Z 02019G26KT 08/M05 A3001 RMK A01 T00831046  RH  040%=      5-min Rain = 0
KQU1 241055Z 01020G25KT 08/M05 A3001 RMK A01 T00831047  RH  039%=      5-min Rain = 0
KQU1 241056Z 02020KT 08/M05 A3001 RMK A01 T00831046  RH  040%=      5-min Rain = 0
KQU1 241057Z 02018KT 08/M05 A3001 RMK A01 T00821047  RH  040%=      5-min Rain = 0
KQU1 241058Z 02015G20KT 08/M05 A3001 RMK A01 T00821046  RH  040%=      5-min Rain = 0
KQU1 241059Z 01012KT 08/M05 A3001 RMK A01 T00811045  RH  040%=      5-min Rain = 0
KQU1 241100Z 02017KT 08/M05 A3001 RMK A01 T00811045  RH  040%=      5-min Rain = 0
KQU1 241101Z 02020G26KT 08/M05 A3001 RMK A01 T00811045  RH  041%=      5-min Rain = 0
KQU1 241102Z 02020KT 08/M05 A3001 RMK A01 T00811045  RH  041%=      5-min Rain = 0
KQU1 241103Z 02020G27KT 08/M05 A3001 RMK A01 T00811045  RH  041%=      5-min Rain = 0
KQU1 241104Z 02018G26KT 08/M05 A3001 RMK A01 T00811045  RH  041%=      5-min Rain = 0
KQU1 241105Z 01022KT 08/M05 A3001 RMK A01 T00811046  RH  040%=      5-min Rain = 0
KQU1 241106Z 01017G26KT 08/M05 A3001 RMK A01 T00811045  RH  041%=      5-min Rain = 0
KQU1 241107Z 02017G24KT 08/M05 A3001 RMK A01 T00811046  RH  040%=      5-min Rain = 0
KQU1 241108Z 01016G24KT 08/M05 A3002 RMK A01 T00811045  RH  041%=      5-min Rain = 0
KQU1 241109Z 02015KT 08/M05 A3001 RMK A01 T00801046  RH  041%=      5-min Rain = 0
KQU1 241110Z 02014G21KT 08/M04 A3002 RMK A01 T00801044  RH  041%=      5-min Rain = 0
KQU1 241111Z 02013G21KT 08/M04 A3002 RMK A01 T00791044  RH  041%=      5-min Rain = 0
KQU1 241112Z 01016G21KT 08/M05 A3002 RMK A01 T00791045  RH  041%=      5-min Rain = 0
KQU1 241113Z 02016G21KT 08/M05 A3002 RMK A01 T00801045  RH  041%=      5-min Rain = 0
KQU1 241114Z 02016G25KT 08/M05 A3002 RMK A01 T00791045  RH  041%=      5-min Rain = 0
KQU1 241115Z 01018G24KT 08/M05 A3002 RMK A01 T00801046  RH  041%=      5-min Rain = 0
KQU1 241116Z 02017G23KT 08/M05 A3002 RMK A01 T00801045  RH  041%=      5-min Rain = 0
KQU1 241117Z 01014KT 08/M04 A3003 RMK A01 T00791044  RH  041%=      5-min Rain = 0
KQU1 241118Z 02016G22KT 08/M05 A3003 RMK A01 T00791045  RH  041%=      5-min Rain = 0
KQU1 241119Z 01014G19KT 08/M05 A3003 RMK A01 T00791045  RH  041%=      5-min Rain = 0
KQU1 241120Z 01017G26KT 08/M05 A3003 RMK A01 T00791045  RH  041%=      5-min Rain = 0
KQU1 241121Z 02016KT 08/M04 A3003 RMK A01 T00791044  RH  041%=      5-min Rain = 0
KQU1 241122Z 02014KT 08/M04 A3003 RMK A01 T00781044  RH  042%=      5-min Rain = 0
KQU1 241123Z 03017KT 08/M05 A3003 RMK A01 T00781045  RH  041%=      5-min Rain = 0
KQU1 241124Z 02013KT 08/M04 A3003 RMK A01 T00781043  RH  042%=      5-min Rain = 0
KQU1 241125Z 02014G22KT 08/M04 A3003 RMK A01 T00781044  RH  042%=      5-min Rain = 0
KQU1 241126Z 01015G22KT 08/M04 A3003 RMK A01 T00771044  RH  042%=      5-min Rain = 0
KQU1 241127Z 02017KT 08/M05 A3003 RMK A01 T00781045  RH  041%=      5-min Rain = 0
KQU1 241128Z 01016G21KT 08/M04 A3003 RMK A01 T00781044  RH  042%=      5-min Rain = 0
KQU1 241129Z 01019G26KT 08/M05 A3003 RMK A01 T00781045  RH  041%=      5-min Rain = 0
KQU1 241130Z 01017G22KT 08/M05 A3003 RMK A01 T00791045  RH  041%=      5-min Rain = 0
KQU1 241131Z 02015KT 08/M05 A3003 RMK A01 T00781045  RH  041%=      5-min Rain = 0
KQU1 241132Z 02016KT 08/M05 A3003 RMK A01 T00781045  RH  041%=      5-min Rain = 0
KQU1 241133Z 01021G28KT 08/M05 A3003 RMK A01 T00781045  RH  041%=      5-min Rain = 0
KQU1 241134Z 01018G27KT 08/M05 A3003 RMK A01 T00781045  RH  041%=      5-min Rain = 0
KQU1 241135Z 01016G24KT 08/M05 A3003 RMK A01 T00781045  RH  041%=      5-min Rain = 0
KQU1 241136Z 02018KT 08/M05 A3003 RMK A01 T00781045  RH  041%=      5-min Rain = 0
KQU1 241137Z 01017KT 08/M05 A3004 RMK A01 T00781046  RH  041%=      5-min Rain = 0
KQU1 241138Z 02016G22KT 08/M05 A3004 RMK A01 T00781045  RH  041%=      5-min Rain = 0
KQU1 241139Z 02021KT 08/M05 A3004 RMK A01 T00781045  RH  041%=      5-min Rain = 0
KQU1 241140Z 01021G27KT 08/M05 A3004 RMK A01 T00781046  RH  041%=      5-min Rain = 0
KQU1 241141Z 01016G21KT 08/M05 A3004 RMK A01 T00781045  RH  041%=      5-min Rain = 0
KQU1 241142Z 02017G24KT 08/M05 A3004 RMK A01 T00781045  RH  041%=      5-min Rain = 0
KQU1 241143Z 02021G26KT 08/M05 A3004 RMK A01 T00771046  RH  041%=      5-min Rain = 0
KQU1 241144Z 01019KT 08/M05 A3004 RMK A01 T00781046  RH  041%=      5-min Rain = 0
KQU1 241145Z 02018G27KT 08/M05 A3004 RMK A01 T00781045  RH  041%=      5-min Rain = 0
KQU1 241146Z 02019G26KT 08/M05 A3004 RMK A01 T00781046  RH  041%=      5-min Rain = 0
KQU1 241147Z 02023G29KT 08/M05 A3004 RMK A01 T00781046  RH  041%=      5-min Rain = 0
KQU1 241148Z 01020KT 08/M05 A3004 RMK A01 T00781047  RH  041%=      5-min Rain = 0
KQU1 241149Z 02016KT 08/M05 A3004 RMK A01 T00781046  RH  041%=      5-min Rain = 0
KQU1 241150Z 02019G25KT 08/M05 A3005 RMK A01 T00781046  RH  041%=      5-min Rain = 0
KQU1 241151Z 02018KT 08/M05 A3005 RMK A01 T00771046  RH  041%=      5-min Rain = 0
KQU1 241152Z 02018G24KT 08/M05 A3005 RMK A01 T00771045  RH  042%=      5-min Rain = 0
KQU1 241153Z 02022G27KT 08/M05 A3005 RMK A01 T00771047  RH  041%=      5-min Rain = 0
KQU1 241154Z 02017G24KT 08/M05 A3005 RMK A01 T00771046  RH  041%=      5-min Rain = 0
KQU1 241155Z 02019KT 08/M05 A3005 RMK A01 T00771047  RH  041%=      5-min Rain = 0
KQU1 241156Z 02017G24KT 08/M05 A3005 RMK A01 T00771046  RH  041%=      5-min Rain = 0
KQU1 241157Z 02020G25KT 08/M05 A3005 RMK A01 T00771046  RH  042%=      5-min Rain = 0
KQU1 241158Z 02018G25KT 08/M05 A3005 RMK A01 T00771046  RH  041%=      5-min Rain = 0
KQU1 241159Z 02018G26KT 08/M05 A3006 RMK A01 T00761046  RH  042%=      5-min Rain = 0
KQU1 241200Z 02017G24KT 08/M05 A3006 RMK A01 T00761045  RH  042%=      5-min Rain = 0
KQU1 241201Z 01017G23KT 08/M05 A3006 RMK A01 T00751046  RH  042%=      5-min Rain = 0
KQU1 241202Z 02018G23KT 08/M05 A3006 RMK A01 T00751045  RH  042%=      5-min Rain = 0
KQU1 241203Z 01018G26KT 08/M05 A3006 RMK A01 T00751046  RH  042%=      5-min Rain = 0
KQU1 241204Z 02013KT 08/M05 A3006 RMK A01 T00751045  RH  042%=      5-min Rain = 0
KQU1 241205Z 02014G22KT 07/M04 A3006 RMK A01 T00741044  RH  043%=      5-min Rain = 0
KQU1 241206Z 02017G24KT 07/M04 A3006 RMK A01 T00741044  RH  043%=      5-min Rain = 0
KQU1 241207Z 02019G24KT 07/M04 A3006 RMK A01 T00741044  RH  043%=      5-min Rain = 0
KQU1 241208Z 03018KT 07/M05 A3006 RMK A01 T00741045  RH  043%=      5-min Rain = 0
KQU1 241209Z 02018G25KT 07/M05 A3006 RMK A01 T00741045  RH  042%=      5-min Rain = 0
KQU1 241210Z 02020G28KT 07/M05 A3006 RMK A01 T00741045  RH  043%=      5-min Rain = 0
KQU1 241211Z 01018G26KT 07/M05 A3006 RMK A01 T00741045  RH  042%=      5-min Rain = 0
KQU1 241212Z 02015KT 07/M04 A3006 RMK A01 T00741044  RH  043%=      5-min Rain = 0
KQU1 241213Z 02016KT 07/M05 A3006 RMK A01 T00741045  RH  043%=      5-min Rain = 0
KQU1 241214Z 02016G21KT 07/M04 A3006 RMK A01 T00741044  RH  043%=      5-min Rain = 0
KQU1 241215Z 02016G21KT 07/M04 A3006 RMK A01 T00741044  RH  043%=      5-min Rain = 0
KQU1 241216Z 02018G24KT 07/M04 A3007 RMK A01 T00731043  RH  043%=      5-min Rain = 0
KQU1 241217Z 02021G29KT 07/M04 A3006 RMK A01 T00731043  RH  043%=      5-min Rain = 0
KQU1 241218Z 02020G27KT 07/M04 A3006 RMK A01 T00731044  RH  043%=      5-min Rain = 0
KQU1 241219Z 02022KT 07/M04 A3007 RMK A01 T00731043  RH  043%=      5-min Rain = 0
KQU1 241220Z 02020KT 07/M04 A3006 RMK A01 T00731044  RH  043%=      5-min Rain = 0
KQU1 241221Z 02020G25KT 07/M04 A3007 RMK A01 T00721043  RH  044%=      5-min Rain = 0
KQU1 241222Z 02017KT 07/M04 A3007 RMK A01 T00721042  RH  044%=      5-min Rain = 0
KQU1 241223Z 02021G28KT 07/M04 A3007 RMK A01 T00721043  RH  044%=      5-min Rain = 0
KQU1 241224Z 02018G23KT 07/M04 A3007 RMK A01 T00721043  RH  044%=      5-min Rain = 0
KQU1 241225Z 02016KT 07/M04 A3007 RMK A01 T00711042  RH  044%=      5-min Rain = 0
KQU1 241226Z 03014KT 07/M04 A3007 RMK A01 T00701041  RH  045%=      5-min Rain = 0
KQU1 241227Z 02018G27KT 07/M04 A3007 RMK A01 T00691042  RH  045%=      5-min Rain = 0
KQU1 241228Z 02018G25KT 07/M04 A3007 RMK A01 T00691042  RH  045%=      5-min Rain = 0
KQU1 241229Z 02020KT 07/M04 A3007 RMK A01 T00691042  RH  045%=      5-min Rain = 0
KQU1 241230Z 02021G26KT 07/M04 A3007 RMK A01 T00691042  RH  045%=      5-min Rain = 0
KQU1 241231Z 02019KT 07/M04 A3007 RMK A01 T00681042  RH  045%=      5-min Rain = 0
KQU1 241232Z 02016G21KT 07/M04 A3007 RMK A01 T00681042  RH  045%=      5-min Rain = 0
KQU1 241233Z 02019G27KT 07/M04 A3007 RMK A01 T00681041  RH  046%=      5-min Rain = 0
KQU1 241234Z 01021G26KT 07/M04 A3007 RMK A01 T00681042  RH  045%=      5-min Rain = 0
KQU1 241235Z 02018G24KT 07/M04 A3007 RMK A01 T00681042  RH  045%=      5-min Rain = 0
KQU1 241236Z 02021G26KT 07/M04 A3007 RMK A01 T00681041  RH  046%=      5-min Rain = 0
KQU1 241237Z 02019G25KT 07/M04 A3007 RMK A01 T00671041  RH  046%=      5-min Rain = 0
KQU1 241238Z 02023G29KT 07/M04 A3007 RMK A01 T00671041  RH  046%=      5-min Rain = 0
KQU1 241239Z 02021G27KT 07/M04 A3007 RMK A01 T00671041  RH  046%=      5-min Rain = 0
KQU1 241240Z 02018G25KT 07/M04 A3007 RMK A01 T00671040  RH  046%=      5-min Rain = 0
KQU1 241241Z 02016G22KT 07/M04 A3008 RMK A01 T00661040  RH  047%=      5-min Rain = 0
KQU1 241242Z 02019G24KT 07/M04 A3007 RMK A01 T00661040  RH  047%=      5-min Rain = 0
KQU1 241243Z 02019KT 07/M04 A3007 RMK A01 T00661040  RH  047%=      5-min Rain = 0
KQU1 241244Z 02016G22KT 07/M04 A3008 RMK A01 T00651040  RH  047%=      5-min Rain = 0
KQU1 241245Z 02018KT 07/M04 A3008 RMK A01 T00651040  RH  047%=      5-min Rain = 0
KQU1 241246Z 02022G29KT 06/M04 A3008 RMK A01 T00641040  RH  047%=      5-min Rain = 0
KQU1 241247Z 02015G21KT 06/M04 A3008 RMK A01 T00641039  RH  048%=      5-min Rain = 0
KQU1 241248Z 02021G26KT 06/M04 A3008 RMK A01 T00641039  RH  048%=      5-min Rain = 0
KQU1 241249Z 02019G26KT 06/M04 A3008 RMK A01 T00641040  RH  047%=      5-min Rain = 0
KQU1 241250Z 02019G26KT 06/M04 A3008 RMK A01 T00631039  RH  048%=      5-min Rain = 0
KQU1 241251Z 02018G24KT 06/M04 A3008 RMK A01 T00631039  RH  048%=      5-min Rain = 0
KQU1 241252Z 02022G27KT 06/M04 A3008 RMK A01 T00621039  RH  048%=      5-min Rain = 0
KQU1 241253Z 02020G28KT 06/M04 A3008 RMK A01 T00621038  RH  049%=      5-min Rain = 0
KQU1 241254Z 03020G27KT 06/M04 A3009 RMK A01 T00621038  RH  049%=      5-min Rain = 0
KQU1 241255Z 02022G27KT 06/M04 A3008 RMK A01 T00611038  RH  049%=      5-min Rain = 0
KQU1 241256Z 02023G29KT 06/M04 A3008 RMK A01 T00611037  RH  049%=      5-min Rain = 0
KQU1 241257Z 01024KT 06/M04 A3008 RMK A01 T00601038  RH  049%=      5-min Rain = 0
KQU1 241258Z 02023G29KT 06/M04 A3008 RMK A01 T00601037  RH  050%=      5-min Rain = 0
KQU1 241259Z 02020G28KT 06/M04 A3008 RMK A01 T00601037  RH  050%=      5-min Rain = 0
KQU1 241300Z 02022KT 06/M04 A3008 RMK A01 T00591037  RH  050%=      5-min Rain = 0
KQU1 241301Z 02022G33KT 06/M04 A3008 RMK A01 T00591036  RH  050%=      5-min Rain = 0
KQU1 241302Z 03023G28KT 06/M04 A3009 RMK A01 T00591036  RH  051%=      5-min Rain = 0
KQU1 241303Z 03023KT 06/M04 A3009 RMK A01 T00581035  RH  051%=      5-min Rain = 0
KQU1 241304Z 02021G26KT 06/M04 A3009 RMK A01 T00581035  RH  051%=      5-min Rain = 0
KQU1 241305Z 03017KT 06/M03 A3009 RMK A01 T00581034  RH  052%=      5-min Rain = 0
KQU1 241306Z 03018KT 06/M03 A3009 RMK A01 T00571034  RH  052%=      5-min Rain = 0
KQU1 241307Z 03018G24KT 06/M03 A3009 RMK A01 T00571034  RH  052%=      5-min Rain = 0
KQU1 241308Z 03018KT 06/M03 A3009 RMK A01 T00571033  RH  052%=      5-min Rain = 0
KQU1 241309Z 02018KT 06/M03 A3009 RMK A01 T00561034  RH  052%=      5-min Rain = 0
KQU1 241310Z 02018G24KT 06/M03 A3009 RMK A01 T00561034  RH  052%=      5-min Rain = 0
KQU1 241311Z 02018KT 06/M03 A3009 RMK A01 T00561034  RH  052%=      5-min Rain = 0
KQU1 241312Z 02015KT 06/M03 A3009 RMK A01 T00561034  RH  052%=      5-min Rain = 0
KQU1 241313Z 02016G24KT 06/M03 A3009 RMK A01 T00551034  RH  053%=      5-min Rain = 0
KQU1 241314Z 03016G25KT 06/M03 A3009 RMK A01 T00551033  RH  053%=      5-min Rain = 0
KQU1 241315Z 03015G22KT 06/M03 A3009 RMK A01 T00551034  RH  053%=      5-min Rain = 0
KQU1 241316Z 02019G24KT 06/M03 A3009 RMK A01 T00551034  RH  053%=      5-min Rain = 0
KQU1 241317Z 02018G23KT 06/M03 A3009 RMK A01 T00551034  RH  053%=      5-min Rain = 0
KQU1 241318Z 02017G22KT 06/M03 A3009 RMK A01 T00551033  RH  053%=      5-min Rain = 0
KQU1 241319Z 02017G23KT 05/M03 A3009 RMK A01 T00541033  RH  053%=      5-min Rain = 0
KQU1 241320Z 02015KT 05/M03 A3009 RMK A01 T00541033  RH  054%=      5-min Rain = 0
KQU1 241321Z 02017KT 05/M03 A3009 RMK A01 T00541033  RH  054%=      5-min Rain = 0
KQU1 241322Z 02016G21KT 05/M03 A3009 RMK A01 T00541032  RH  054%=      5-min Rain = 0
KQU1 241323Z 02021G28KT 05/M03 A3009 RMK A01 T00541033  RH  054%=      5-min Rain = 0
KQU1 241324Z 03020G31KT 05/M03 A3009 RMK A01 T00541032  RH  054%=      5-min Rain = 0
KQU1 241325Z 02018G26KT 05/M03 A3009 RMK A01 T00541033  RH  053%=      5-min Rain = 0
KQU1 241326Z 02019G28KT 05/M03 A301 RMK A01 T00541032  RH  054%=      5-min Rain = 0
KQU1 241327Z 02018G26KT 05/M03 A301 RMK A01 T00531032  RH  054%=      5-min Rain = 0
KQU1 241328Z 02014G19KT 05/M03 A301 RMK A01 T00531031  RH  054%=      5-min Rain = 0
KQU1 241329Z 02016G23KT 05/M03 A301 RMK A01 T00531032  RH  054%=      5-min Rain = 0
KQU1 241330Z 03018G23KT 05/M03 A301 RMK A01 T00521031  RH  055%=      5-min Rain = 0
KQU1 241331Z 02016G24KT 05/M03 A301 RMK A01 T00521031  RH  055%=      5-min Rain = 0
KQU1 241332Z 02017G22KT 05/M03 A301 RMK A01 T00521032  RH  055%=      5-min Rain = 0
KQU1 241333Z 02019G26KT 05/M03 A301 RMK A01 T00521032  RH  055%=      5-min Rain = 0
KQU1 241334Z 03014G22KT 05/M03 A301 RMK A01 T00521031  RH  055%=      5-min Rain = 0
KQU1 241335Z 02016G22KT 05/M03 A3011 RMK A01 T00521032  RH  055%=      5-min Rain = 0
KQU1 241336Z 02012G19KT 05/M03 A3011 RMK A01 T00521031  RH  055%=      5-min Rain = 0
KQU1 241337Z 02013G18KT 05/M03 A3011 RMK A01 T00521032  RH  055%=      5-min Rain = 0
KQU1 241338Z 02013G20KT 05/M03 A3011 RMK A01 T00511031  RH  055%=      5-min Rain = 0
KQU1 241339Z 03014G21KT 05/M03 A3011 RMK A01 T00511031  RH  055%=      5-min Rain = 0
KQU1 241340Z 02016KT 05/M03 A3011 RMK A01 T00511032  RH  055%=      5-min Rain = 0
KQU1 241341Z 03012G19KT 05/M03 A3012 RMK A01 T00511031  RH  055%=      5-min Rain = 0
KQU1 241342Z 03016G21KT 05/M03 A3012 RMK A01 T00511031  RH  055%=      5-min Rain = 0
KQU1 241343Z 03018G26KT 05/M03 A3012 RMK A01 T00521031  RH  055%=      5-min Rain = 0
KQU1 241344Z 03015G21KT 05/M03 A3012 RMK A01 T00521031  RH  055%=      5-min Rain = 0
KQU1 241345Z 02016G25KT 05/M03 A3012 RMK A01 T00521031  RH  055%=      5-min Rain = 0
KQU1 241346Z 03017G23KT 05/M03 A3012 RMK A01 T00521031  RH  055%=      5-min Rain = 0
KQU1 241347Z 03017KT 05/M03 A3012 RMK A01 T00521032  RH  055%=      5-min Rain = 0
KQU1 241348Z 02013G18KT 05/M03 A3012 RMK A01 T00521031  RH  055%=      5-min Rain = 0
KQU1 241349Z 03014KT 05/M03 A3012 RMK A01 T00521031  RH  055%=      5-min Rain = 0
KQU1 241350Z 02015KT 05/M03 A3012 RMK A01 T00521031  RH  055%=      5-min Rain = 0
KQU1 241351Z 03017G24KT 05/M03 A3012 RMK A01 T00521032  RH  055%=      5-min Rain = 0
KQU1 241352Z 03017KT 05/M03 A3013 RMK A01 T00521032  RH  054%=      5-min Rain = 0
KQU1 241353Z 03016G22KT 05/M03 A3013 RMK A01 T00521032  RH  055%=      5-min Rain = 0
KQU1 241354Z 03018G23KT 05/M03 A3013 RMK A01 T00521033  RH  054%=      5-min Rain = 0
KQU1 241355Z 02021KT 05/M03 A3013 RMK A01 T00521033  RH  054%=      5-min Rain = 0
KQU1 241356Z 02016G25KT 05/M03 A3013 RMK A01 T00521032  RH  054%=      5-min Rain = 0
KQU1 241357Z 02022G27KT 05/M03 A3013 RMK A01 T00521033  RH  054%=      5-min Rain = 0
KQU1 241358Z 03020G25KT 05/M03 A3013 RMK A01 T00521033  RH  054%=      5-min Rain = 0
KQU1 241359Z 03018KT 05/M03 A3013 RMK A01 T00521033  RH  054%=      5-min Rain = 0
KQU1 241400Z 03018G24KT 05/M03 A3013 RMK A01 T00521033  RH  054%=      5-min Rain = 0
KQU1 241401Z 03016G21KT 05/M03 A3013 RMK A01 T00521033  RH  054%=      5-min Rain = 0
KQU1 241402Z 02019KT 05/M03 A3013 RMK A01 T00531034  RH  054%=      5-min Rain = 0
KQU1 241403Z 03018KT 05/M03 A3013 RMK A01 T00531034  RH  054%=      5-min Rain = 0
KQU1 241404Z 02015G20KT 05/M03 A3014 RMK A01 T00531033  RH  054%=      5-min Rain = 0
KQU1 241405Z 03018G26KT 05/M03 A3014 RMK A01 T00531034  RH  054%=      5-min Rain = 0
KQU1 241406Z 02016G22KT 05/M03 A3013 RMK A01 T00521034  RH  054%=      5-min Rain = 0
KQU1 241407Z 03014G21KT 05/M03 A3014 RMK A01 T00521033  RH  054%=      5-min Rain = 0
KQU1 241408Z 02021G30KT 05/M04 A3014 RMK A01 T00531036  RH  053%=      5-min Rain = 0
KQU1 241409Z 03020KT 05/M04 A3014 RMK A01 T00541036  RH  052%=      5-min Rain = 0
KQU1 241410Z 03020G25KT 05/M04 A3014 RMK A01 T00541035  RH  053%=      5-min Rain = 0
KQU1 241411Z 02016G22KT 05/M03 A3014 RMK A01 T00541034  RH  053%=      5-min Rain = 0
KQU1 241412Z 02016G23KT 05/M04 A3014 RMK A01 T00541035  RH  053%=      5-min Rain = 0
KQU1 241413Z 03013G19KT 05/M03 A3014 RMK A01 T00541034  RH  053%=      5-min Rain = 0
KQU1 241414Z 02021KT 05/M04 A3014 RMK A01 T00541035  RH  053%=      5-min Rain = 0
KQU1 241415Z 02016G22KT 05/M04 A3014 RMK A01 T00541035  RH  053%=      5-min Rain = 0
KQU1 241416Z 03014G20KT 05/M03 A3015 RMK A01 T00531034  RH  053%=      5-min Rain = 0
KQU1 241417Z 02018G23KT 05/M04 A3015 RMK A01 T00541035  RH  053%=      5-min Rain = 0
KQU1 241418Z 02017KT 05/M03 A3015 RMK A01 T00541034  RH  053%=      5-min Rain = 0
KQU1 241419Z 02022G27KT 05/M04 A3015 RMK A01 T00541036  RH  052%=      5-min Rain = 0
KQU1 241420Z 02016G22KT 05/M04 A3015 RMK A01 T00541037  RH  052%=      5-min Rain = 0
KQU1 241421Z 02019G24KT 05/M04 A3015 RMK A01 T00541037  RH  052%=      5-min Rain = 0
KQU1 241422Z 02020G25KT 06/M04 A3015 RMK A01 T00551038  RH  051%=      5-min Rain = 0
KQU1 241423Z 02018G24KT 06/M04 A3015 RMK A01 T00551038  RH  051%=      5-min Rain = 0
KQU1 241424Z 01020G25KT 05/M04 A3015 RMK A01 T00541038  RH  051%=      5-min Rain = 0
KQU1 241425Z 01017G23KT 05/M04 A3015 RMK A01 T00541038  RH  052%=      5-min Rain = 0
KQU1 241426Z 03014G19KT 05/M04 A3015 RMK A01 T00541036  RH  052%=      5-min Rain = 0
KQU1 241427Z 01017G26KT 05/M04 A3015 RMK A01 T00541037  RH  052%=      5-min Rain = 0
KQU1 241428Z 02020G26KT 05/M04 A3015 RMK A01 T00541038  RH  052%=      5-min Rain = 0
KQU1 241429Z 02016KT 05/M04 A3016 RMK A01 T00541038  RH  052%=      5-min Rain = 0
KQU1 241430Z 02016G24KT 05/M04 A3016 RMK A01 T00541038  RH  051%=      5-min Rain = 0
KQU1 241431Z 02021G26KT 05/M04 A3016 RMK A01 T00541039  RH  051%=      5-min Rain = 0
KQU1 241432Z 03018G23KT 05/M04 A3016 RMK A01 T00541038  RH  052%=      5-min Rain = 0
KQU1 241433Z 02018G24KT 05/M04 A3016 RMK A01 T00541038  RH  052%=      5-min Rain = 0
KQU1 241434Z 02017G22KT 05/M04 A3016 RMK A01 T00541039  RH  051%=      5-min Rain = 0
KQU1 241435Z 02018G23KT 05/M04 A3016 RMK A01 T00541039  RH  051%=      5-min Rain = 0
KQU1 241436Z 02014G25KT 05/M04 A3016 RMK A01 T00531039  RH  051%=      5-min Rain = 0
KQU1 241437Z 02021KT 05/M04 A3016 RMK A01 T00531041  RH  051%=      5-min Rain = 0
KQU1 241438Z 02018G24KT 05/M04 A3016 RMK A01 T00531041  RH  051%=      5-min Rain = 0
KQU1 241439Z 02016G21KT 05/M04 A3016 RMK A01 T00531041  RH  050%=      5-min Rain = 0
KQU1 241440Z 03014G21KT 05/M04 A3017 RMK A01 T00541040  RH  051%=      5-min Rain = 0
KQU1 241441Z 03014KT 05/M04 A3017 RMK A01 T00541039  RH  051%=      5-min Rain = 0
KQU1 241442Z 02017G22KT 05/M04 A3017 RMK A01 T00541040  RH  051%=      5-min Rain = 0
KQU1 241443Z 02012G20KT 05/M04 A3017 RMK A01 T00541040  RH  051%=      5-min Rain = 0
KQU1 241444Z 02017G23KT 06/M04 A3017 RMK A01 T00551041  RH  050%=      5-min Rain = 0
KQU1 241445Z 03015G22KT 05/M04 A3017 RMK A01 T00541040  RH  051%=      5-min Rain = 0
KQU1 241446Z 02017KT 06/M04 A3017 RMK A01 T00551041  RH  050%=      5-min Rain = 0
KQU1 241447Z 02015KT 06/M04 A3017 RMK A01 T00551042  RH  050%=      5-min Rain = 0
KQU1 241448Z 03013G18KT 06/M04 A3017 RMK A01 T00551040  RH  050%=      5-min Rain = 0
KQU1 241449Z 02014G22KT 06/M04 A3017 RMK A01 T00561040  RH  050%=      5-min Rain = 0
KQU1 241450Z 03014G20KT 06/M04 A3017 RMK A01 T00561040  RH  050%=      5-min Rain = 0
KQU1 241451Z 03018G23KT 06/M04 A3017 RMK A01 T00561042  RH  049%=      5-min Rain = 0
KQU1 241452Z 02016G21KT 06/M04 A3017 RMK A01 T00561041  RH  049%=      5-min Rain = 0
KQU1 241453Z 02017G24KT 06/M04 A3017 RMK A01 T00571041  RH  049%=      5-min Rain = 0
KQU1 241454Z 02017G24KT 06/M04 A3017 RMK A01 T00571043  RH  049%=      5-min Rain = 0
KQU1 241455Z 02021G27KT 06/M05 A3017 RMK A01 T00561045  RH  048%=      5-min Rain = 0
KQU1 241456Z 02018KT 06/M05 A3017 RMK A01 T00551046  RH  048%=      5-min Rain = 0
KQU1 241457Z 02016KT 06/M04 A3017 RMK A01 T00561044  RH  049%=      5-min Rain = 0
KQU1 241458Z 02019G27KT 06/M05 A3017 RMK A01 T00561046  RH  048%=      5-min Rain = 0
KQU1 241459Z 03017G25KT 06/M04 A3017 RMK A01 T00561044  RH  048%=      5-min Rain = 0
KQU1 241500Z 02015G21KT 06/M05 A3017 RMK A01 T00571045  RH  048%=      5-min Rain = 0
KQU1 241501Z 02020KT 06/M05 A3017 RMK A01 T00571045  RH  048%=      5-min Rain = 0
KQU1 241502Z 02020G26KT 06/M05 A3017 RMK A01 T00571047  RH  047%=      5-min Rain = 0
KQU1 241503Z 02016G23KT 06/M05 A3018 RMK A01 T00571045  RH  048%=      5-min Rain = 0
KQU1 241504Z 02023G31KT 06/M05 A3017 RMK A01 T00571047  RH  047%=      5-min Rain = 0
KQU1 241505Z 02021G26KT 06/M05 A3018 RMK A01 T00571047  RH  047%=      5-min Rain = 0
KQU1 241506Z 02019KT 06/M05 A3018 RMK A01 T00561047  RH  048%=      5-min Rain = 0
KQU1 241507Z 03017G22KT 06/M05 A3018 RMK A01 T00561046  RH  048%=      5-min Rain = 0
KQU1 241508Z 03013G21KT 06/M05 A3018 RMK A01 T00571045  RH  048%=      5-min Rain = 0
KQU1 241509Z 02016G21KT 06/M05 A3018 RMK A01 T00581046  RH  047%=      5-min Rain = 0
KQU1 241510Z 02017KT 06/M05 A3018 RMK A01 T00581047  RH  047%=      5-min Rain = 0
KQU1 241511Z 02017G23KT 06/M05 A3018 RMK A01 T00571047  RH  047%=      5-min Rain = 0
KQU1 241512Z 03017G23KT 06/M05 A3018 RMK A01 T00571046  RH  047%=      5-min Rain = 0
KQU1 241513Z 02017G22KT 06/M05 A3018 RMK A01 T00581047  RH  047%=      5-min Rain = 0
KQU1 241514Z 02012G18KT 06/M05 A3018 RMK A01 T00581045  RH  048%=      5-min Rain = 0
KQU1 241515Z 01016G21KT 06/M05 A3018 RMK A01 T00601046  RH  047%=      5-min Rain = 0
KQU1 241516Z 02014G19KT 06/M05 A3019 RMK A01 T00591047  RH  046%=      5-min Rain = 0
KQU1 241517Z 02017KT 06/M05 A3019 RMK A01 T00591048  RH  046%=      5-min Rain = 0
KQU1 241518Z 02016G22KT 06/M05 A3019 RMK A01 T00591046  RH  047%=      5-min Rain = 0
KQU1 241519Z 03013G19KT 06/M05 A3019 RMK A01 T00591047  RH  047%=      5-min Rain = 0
KQU1 241520Z 02012G19KT 06/M04 A3019 RMK A01 T00601043  RH  048%=      5-min Rain = 0
KQU1 241521Z 02016G22KT 06/M05 A3019 RMK A01 T00611047  RH  046%=      5-min Rain = 0
KQU1 241522Z 02016G21KT 06/M05 A3019 RMK A01 T00601048  RH  046%=      5-min Rain = 0
KQU1 241523Z 03016G21KT 06/M05 A3019 RMK A01 T00601046  RH  047%=      5-min Rain = 0
KQU1 241524Z 03017G23KT 06/M05 A3019 RMK A01 T00601047  RH  046%=      5-min Rain = 0
KQU1 241525Z 03013G19KT 06/M05 A3019 RMK A01 T00611046  RH  046%=      5-min Rain = 0
KQU1 241526Z 02016G23KT 06/M05 A3019 RMK A01 T00621047  RH  046%=      5-min Rain = 0
KQU1 241527Z 01018KT 06/M05 A3019 RMK A01 T00611049  RH  045%=      5-min Rain = 0
KQU1 241528Z 02019KT 06/M05 A3019 RMK A01 T00601049  RH  045%=      5-min Rain = 0
KQU1 241529Z 03014G23KT 06/M05 A3019 RMK A01 T00601049  RH  046%=      5-min Rain = 0
KQU1 241530Z 02011G17KT 06/M05 A302 RMK A01 T00611046  RH  046%=      5-min Rain = 0
KQU1 241531Z 03012KT 06/M05 A302 RMK A01 T00621046  RH  046%=      5-min Rain = 0
KQU1 241532Z 03011G16KT 06/M05 A302 RMK A01 T00641045  RH  046%=      5-min Rain = 0
KQU1 241533Z 03011G19KT 06/M05 A302 RMK A01 T00641046  RH  045%=      5-min Rain = 0
KQU1 241534Z 04009G15KT 07/M05 A302 RMK A01 T00651045  RH  045%=      5-min Rain = 0
KQU1 241535Z 04014KT 06/M05 A302 RMK A01 T00641049  RH  044%=      5-min Rain = 0
KQU1 241536Z 03015KT 06/M05 A302 RMK A01 T00641047  RH  045%=      5-min Rain = 0
KQU1 241537Z 01012G18KT 07/M05 A302 RMK A01 T00651047  RH  045%=      5-min Rain = 0
KQU1 241538Z 02015G20KT 07/M05 A302 RMK A01 T00651048  RH  044%=      5-min Rain = 0
KQU1 241539Z 02017G25KT 06/M05 A302 RMK A01 T00641047  RH  045%=      5-min Rain = 0
KQU1 241540Z 03015G20KT 06/M05 A302 RMK A01 T00631048  RH  045%=      5-min Rain = 0
KQU1 241541Z 03017G24KT 06/M05 A302 RMK A01 T00631048  RH  045%=      5-min Rain = 0
KQU1 241542Z 02012G19KT 06/M05 A302 RMK A01 T00631047  RH  045%=      5-min Rain = 0
KQU1 241543Z 02015G20KT 06/M05 A302 RMK A01 T00631048  RH  045%=      5-min Rain = 0
KQU1 241544Z 03013G21KT 06/M05 A302 RMK A01 T00631047  RH  045%=      5-min Rain = 0
KQU1 241545Z 03019KT 06/M05 A302 RMK A01 T00631049  RH  045%=      5-min Rain = 0
KQU1 241546Z 02016G21KT 06/M05 A302 RMK A01 T00631049  RH  045%=      5-min Rain = 0
KQU1 241547Z 03010G15KT 06/M05 A302 RMK A01 T00631048  RH  045%=      5-min Rain = 0
KQU1 241548Z 03014G20KT 06/M05 A3021 RMK A01 T00641046  RH  045%=      5-min Rain = 0
KQU1 241549Z 02012G18KT 06/M05 A302 RMK A01 T00641047  RH  045%=      5-min Rain = 0
KQU1 241550Z 02014G20KT 07/M05 A302 RMK A01 T00651047  RH  045%=      5-min Rain = 0
KQU1 241551Z 02009KT 07/M05 A302 RMK A01 T00661045  RH  045%=      5-min Rain = 0
KQU1 241552Z 03014G22KT 07/M05 A3021 RMK A01 T00671046  RH  045%=      5-min Rain = 0
KQU1 241553Z 03016KT 07/M05 A302 RMK A01 T00661048  RH  044%=      5-min Rain = 0
KQU1 241554Z 02017G22KT 07/M05 A302 RMK A01 T00651049  RH  044%=      5-min Rain = 0
KQU1 241555Z 03014KT 07/M05 A302 RMK A01 T00661047  RH  044%=      5-min Rain = 0
KQU1 241556Z 03013G18KT 07/M05 A302 RMK A01 T00661047  RH  044%=      5-min Rain = 0
KQU1 241557Z 03014KT 07/M05 A302 RMK A01 T00671046  RH  044%=      5-min Rain = 0
KQU1 241558Z 03010G15KT 07/M04 A302 RMK A01 T00681044  RH  045%=      5-min Rain = 0
KQU1 241559Z 03007KT 07/M04 A3021 RMK A01 T00701043  RH  045%=      5-min Rain = 0
KQU1 241600Z 03007G13KT 07/M04 A3021 RMK A01 T00711043  RH  044%=      5-min Rain = 0
KQU1 241601Z 03010KT 07/M04 A3021 RMK A01 T00721044  RH  043%=      5-min Rain = 0
KQU1 241602Z 04012KT 07/M05 A3021 RMK A01 T00711049  RH  042%=      5-min Rain = 0
KQU1 241603Z 03014G19KT 07/M05 A3021 RMK A01 T00701048  RH  043%=      5-min Rain = 0
KQU1 241604Z 04011G17KT 07/M05 A3021 RMK A01 T00691046  RH  044%=      5-min Rain = 0
KQU1 241605Z 04010G16KT 07/M05 A3021 RMK A01 T00701045  RH  044%=      5-min Rain = 0
KQU1 241606Z 04010G15KT 07/M05 A3021 RMK A01 T00701045  RH  044%=      5-min Rain = 0
KQU1 241607Z 04010KT 07/M05 A3021 RMK A01 T00701045  RH  044%=      5-min Rain = 0
KQU1 241608Z 04008KT 07/M05 A3021 RMK A01 T00711045  RH  043%=      5-min Rain = 0
KQU1 241609Z 05008G15KT 07/M05 A3021 RMK A01 T00721045  RH  043%=      5-min Rain = 0
KQU1 241610Z 02012G17KT 07/M05 A3021 RMK A01 T00721045  RH  043%=      5-min Rain = 0
KQU1 241611Z 03014KT 07/M05 A3021 RMK A01 T00721048  RH  042%=      5-min Rain = 0
KQU1 241612Z 03012KT 07/M05 A3021 RMK A01 T00711047  RH  043%=      5-min Rain = 0
KQU1 241613Z 02013G19KT 07/M05 A3021 RMK A01 T00711046  RH  043%=      5-min Rain = 0
KQU1 241614Z 03015G20KT 07/M05 A3021 RMK A01 T00711047  RH  043%=      5-min Rain = 0
KQU1 241615Z 03014KT 07/M05 A3021 RMK A01 T00711047  RH  043%=      5-min Rain = 0
KQU1 241616Z 03010G18KT 07/M05 A3021 RMK A01 T00721046  RH  043%=      5-min Rain = 0
KQU1 241617Z 03012KT 07/M05 A3021 RMK A01 T00731047  RH  042%=      5-min Rain = 0
KQU1 241618Z 03009G15KT 07/M05 A3021 RMK A01 T00731046  RH  043%=      5-min Rain = 0
KQU1 241619Z 04009KT 07/M04 A3021 RMK A01 T00741044  RH  043%=      5-min Rain = 0
KQU1 241620Z 03008G13KT 08/M04 A3021 RMK A01 T00751044  RH  042%=      5-min Rain = 0
KQU1 241621Z 04008G14KT 08/M05 A3021 RMK A01 T00751046  RH  042%=      5-min Rain = 0
KQU1 241622Z 04010G17KT 08/M05 A3021 RMK A01 T00751046  RH  042%=      5-min Rain = 0
KQU1 241623Z 05013G19KT 08/M05 A3021 RMK A01 T00751048  RH  041%=      5-min Rain = 0
KQU1 241624Z 04009G17KT 07/M05 A3021 RMK A01 T00741048  RH  042%=      5-min Rain = 0
KQU1 241625Z 06012KT 07/M05 A3021 RMK A01 T00741047  RH  042%=      5-min Rain = 0
KQU1 241626Z 04008G16KT 08/M05 A3021 RMK A01 T00751045  RH  042%=      5-min Rain = 0
KQU1 241627Z 04012KT 08/M05 A3021 RMK A01 T00751049  RH  041%=      5-min Rain = 0
KQU1 241628Z 04008G13KT 08/M05 A3021 RMK A01 T00751048  RH  042%=      5-min Rain = 0
KQU1 241629Z 04011G16KT 08/M05 A3021 RMK A01 T00751048  RH  041%=      5-min Rain = 0
KQU1 241630Z 04005G11KT 08/M04 A3021 RMK A01 T00761044  RH  042%=      5-min Rain = 0
KQU1 241631Z 03011G19KT 08/M04 A3021 RMK A01 T00781043  RH  042%=      5-min Rain = 0
KQU1 241632Z 03016KT 08/M05 A3021 RMK A01 T00791049  RH  040%=      5-min Rain = 0
KQU1 241633Z 04012G18KT 08/M05 A3021 RMK A01 T00771049  RH  040%=      5-min Rain = 0
KQU1 241634Z 02010G15KT 08/M05 A3021 RMK A01 T00771047  RH  041%=      5-min Rain = 0
KQU1 241635Z 03010KT 08/M05 A3021 RMK A01 T00781046  RH  041%=      5-min Rain = 0
KQU1 241636Z 02011G16KT 08/M05 A3021 RMK A01 T00791046  RH  041%=      5-min Rain = 0
KQU1 241637Z 02011G20KT 08/M05 A3021 RMK A01 T00801046  RH  041%=      5-min Rain = 0
KQU1 241638Z 02012G17KT 08/M05 A3021 RMK A01 T00791048  RH  040%=      5-min Rain = 0
KQU1 241639Z 03013G18KT 08/M05 A3021 RMK A01 T00791047  RH  041%=      5-min Rain = 0
KQU1 241640Z 02011KT 08/M05 A3021 RMK A01 T00801045  RH  041%=      5-min Rain = 0
KQU1 241641Z 04011G17KT 08/M05 A3021 RMK A01 T00801046  RH  041%=      5-min Rain = 0
KQU1 241642Z 05009G16KT 08/M05 A3021 RMK A01 T00801047  RH  040%=      5-min Rain = 0
KQU1 241643Z 03012KT 08/M05 A3021 RMK A01 T00801049  RH  040%=      5-min Rain = 0
KQU1 241644Z 03009G15KT 08/M05 A3021 RMK A01 T00801046  RH  041%=      5-min Rain = 0
KQU1 241645Z 02013KT 08/M05 A3021 RMK A01 T00801047  RH  040%=      5-min Rain = 0
KQU1 241646Z 02012G17KT 08/M05 A3021 RMK A01 T00791050  RH  040%=      5-min Rain = 0
KQU1 241647Z 02014G19KT 08/M05 A3021 RMK A01 T00791049  RH  040%=      5-min Rain = 0
KQU1 241648Z 04012KT 08/M05 A3021 RMK A01 T00801046  RH  041%=      5-min Rain = 0
KQU1 241649Z 05014KT 08/M05 A3021 RMK A01 T00811049  RH  039%=      5-min Rain = 0
KQU1 241650Z 05014KT 08/M05 A3021 RMK A01 T00801049  RH  040%=      5-min Rain = 0
KQU1 241651Z 04012G17KT 08/M05 A3021 RMK A01 T00791048  RH  040%=      5-min Rain = 0
KQU1 241652Z 03011G16KT 08/M05 A3021 RMK A01 T00801048  RH  040%=      5-min Rain = 0
KQU1 241653Z 04011KT 08/M05 A3021 RMK A01 T00801047  RH  040%=      5-min Rain = 0
KQU1 241654Z 04009G16KT 08/M05 A3021 RMK A01 T00821047  RH  040%=      5-min Rain = 0
KQU1 241655Z 05011KT 08/M05 A3021 RMK A01 T00821049  RH  039%=      5-min Rain = 0
KQU1 241656Z 05009G14KT 08/M05 A3021 RMK A01 T00821046  RH  040%=      5-min Rain = 0
KQU1 241657Z 03012G17KT 08/M05 A3021 RMK A01 T00831046  RH  040%=      5-min Rain = 0
KQU1 241658Z 02016KT 08/M05 A3021 RMK A01 T00831048  RH  039%=      5-min Rain = 0
KQU1 241659Z 03014G19KT 08/M05 A3021 RMK A01 T00821047  RH  040%=      5-min Rain = 0
KQU1 241700Z 03005G11KT 08/M04 A3021 RMK A01 T00841044  RH  040%=      5-min Rain = 0
KQU1 241701Z 03010KT 09/M04 A3021 RMK A01 T00861044  RH  040%=      5-min Rain = 0
KQU1 241702Z 03010KT 09/M05 A3021 RMK A01 T00871045  RH  039%=      5-min Rain = 0
KQU1 241703Z 03011KT 09/M05 A3021 RMK A01 T00871045  RH  039%=      5-min Rain = 0
KQU1 241704Z 04005G10KT 09/M04 A3021 RMK A01 T00891044  RH  039%=      5-min Rain = 0
KQU1 241705Z 03007KT 09/M04 A3021 RMK A01 T00901044  RH  039%=      5-min Rain = 0
KQU1 241706Z 04006G12KT 09/M04 A3021 RMK A01 T00911043  RH  038%=      5-min Rain = 0
KQU1 241707Z 03006G14KT 09/M04 A302 RMK A01 T00921042  RH  038%=      5-min Rain = 0
KQU1 241708Z 02008G13KT 09/M04 A302 RMK A01 T00921044  RH  038%=      5-min Rain = 0
KQU1 241709Z 02010KT 09/M04 A302 RMK A01 T00911044  RH  038%=      5-min Rain = 0
KQU1 241710Z 02014KT 09/M05 A302 RMK A01 T00901046  RH  038%=      5-min Rain = 0
KQU1 241711Z 05010KT 09/M05 A3021 RMK A01 T00891046  RH  038%=      5-min Rain = 0
KQU1 241712Z 06012KT 09/M05 A302 RMK A01 T00881047  RH  038%=      5-min Rain = 0
KQU1 241713Z 04013KT 09/M05 A302 RMK A01 T00881046  RH  038%=      5-min Rain = 0
KQU1 241714Z 05012G17KT 09/M05 A3021 RMK A01 T00881048  RH  038%=      5-min Rain = 0
KQU1 241715Z 04010KT 09/M05 A3021 RMK A01 T00871049  RH  038%=      5-min Rain = 0
KQU1 241716Z 04007G12KT 09/M05 A302 RMK A01 T00871047  RH  038%=      5-min Rain = 0
KQU1 241717Z 03009G17KT 09/M05 A302 RMK A01 T00881046  RH  038%=      5-min Rain = 0
KQU1 241718Z 04009KT 09/M05 A302 RMK A01 T00871047  RH  038%=      5-min Rain = 0
KQU1 241719Z 05009KT 09/M05 A302 RMK A01 T00881045  RH  039%=      5-min Rain = 0
KQU1 241720Z 03010G16KT 09/M05 A302 RMK A01 T00881046  RH  038%=      5-min Rain = 0
KQU1 241721Z 03013G18KT 09/M05 A302 RMK A01 T00881048  RH  038%=      5-min Rain = 0
KQU1 241722Z 02014KT 09/M05 A302 RMK A01 T00871049  RH  038%=      5-min Rain = 0
KQU1 241723Z 04010G15KT 09/M05 A302 RMK A01 T00871048  RH  038%=      5-min Rain = 0
KQU1 241724Z 05006G12KT 09/M04 A302 RMK A01 T00881044  RH  039%=      5-min Rain = 0
KQU1 241725Z 02010KT 09/M04 A302 RMK A01 T00891043  RH  039%=      5-min Rain = 0
KQU1 241726Z 03011G17KT 09/M04 A302 RMK A01 T00911043  RH  038%=      5-min Rain = 0
KQU1 241727Z 03013G18KT 09/M05 A302 RMK A01 T00911047  RH  037%=      5-min Rain = 0
KQU1 241728Z 03009G15KT 09/M05 A302 RMK A01 T00921045  RH  038%=      5-min Rain = 0
KQU1 241729Z 03010G17KT 09/M04 A302 RMK A01 T00921044  RH  038%=      5-min Rain = 0
KQU1 241730Z 02011G17KT 09/M04 A302 RMK A01 T00941043  RH  038%=      5-min Rain = 0
KQU1 241731Z 04011G17KT 09/M05 A302 RMK A01 T00931047  RH  037%=      5-min Rain = 0
KQU1 241732Z 04008KT 09/M05 A302 RMK A01 T00931045  RH  037%=      5-min Rain = 0
KQU1 241733Z 03010KT 09/M05 A302 RMK A01 T00931046  RH  037%=      5-min Rain = 0
KQU1 241734Z 02011KT 09/M05 A302 RMK A01 T00921046  RH  037%=      5-min Rain = 0
KQU1 241735Z 04008G13KT 09/M04 A302 RMK A01 T00941044  RH  037%=      5-min Rain = 0
KQU1 241736Z 05012G17KT 10/M05 A302 RMK A01 T00951046  RH  036%=      5-min Rain = 0
KQU1 241737Z 04012G17KT 10/M05 A302 RMK A01 T00951047  RH  036%=      5-min Rain = 0
KQU1 241738Z 04010G15KT 10/M05 A302 RMK A01 T00951046  RH  037%=      5-min Rain = 0
KQU1 241739Z 04007KT 10/M05 A302 RMK A01 T00951047  RH  036%=      5-min Rain = 0
KQU1 241740Z 04008G15KT 10/M05 A302 RMK A01 T00961047  RH  036%=      5-min Rain = 0
KQU1 241741Z 04010KT 10/M05 A302 RMK A01 T00961046  RH  036%=      5-min Rain = 0
KQU1 241742Z 04008G14KT 10/M05 A302 RMK A01 T00971046  RH  036%=      5-min Rain = 0
KQU1 241743Z 04008KT 10/M05 A302 RMK A01 T00971046  RH  036%=      5-min Rain = 0
KQU1 241744Z 02010G15KT 10/M04 A302 RMK A01 T00971043  RH  037%=      5-min Rain = 0
KQU1 241745Z 04009G14KT 10/M05 A302 RMK A01 T00981045  RH  036%=      5-min Rain = 0
KQU1 241746Z 03013G19KT 10/M05 A302 RMK A01 T00981047  RH  036%=      5-min Rain = 0
KQU1 241747Z 03013KT 10/M05 A302 RMK A01 T00961048  RH  036%=      5-min Rain = 0
KQU1 241748Z 03010KT 10/M05 A302 RMK A01 T00961047  RH  036%=      5-min Rain = 0
KQU1 241749Z 02010KT 10/M05 A302 RMK A01 T00971046  RH  036%=      5-min Rain = 0
KQU1 241750Z 03012G18KT 10/M05 A302 RMK A01 T00981047  RH  036%=      5-min Rain = 0
KQU1 241751Z 04011G16KT 10/M05 A302 RMK A01 T00981048  RH  035%=      5-min Rain = 0
KQU1 241752Z 04010KT 10/M05 A302 RMK A01 T00981047  RH  036%=      5-min Rain = 0
KQU1 241753Z 05010KT 10/M05 A302 RMK A01 T00971049  RH  035%=      5-min Rain = 0
KQU1 241754Z 06009KT 10/M05 A302 RMK A01 T00971046  RH  036%=      5-min Rain = 0
KQU1 241755Z 06011KT 10/M05 A302 RMK A01 T00971047  RH  036%=      5-min Rain = 0
KQU1 241756Z 03008KT 10/M04 A302 RMK A01 T00991043  RH  037%=      5-min Rain = 0
KQU1 241757Z 03009KT 10/M04 A302 RMK A01 T01011044  RH  036%=      5-min Rain = 0
KQU1 241758Z 02012KT 10/M05 A302 RMK A01 T01021047  RH  035%=      5-min Rain = 0
KQU1 241759Z 02011KT 10/M05 A302 RMK A01 T01001048  RH  035%=      5-min Rain = 0
KQU1 241800Z 04011G16KT 10/M05 A302 RMK A01 T01011047  RH  035%=      5-min Rain = 0
KQU1 241801Z 04009G14KT 10/M05 A302 RMK A01 T01011047  RH  035%=      5-min Rain = 0
KQU1 241802Z 04009G14KT 10/M05 A302 RMK A01 T01021048  RH  035%=      5-min Rain = 0
KQU1 241803Z 04008KT 10/M05 A302 RMK A01 T01021046  RH  035%=      5-min Rain = 0
KQU1 241804Z 05010KT 10/M05 A302 RMK A01 T01041048  RH  034%=      5-min Rain = 0
KQU1 241805Z 05007KT 10/M05 A302 RMK A01 T01041048  RH  034%=      5-min Rain = 0
KQU1 241806Z 03009G15KT 10/M04 A302 RMK A01 T01041043  RH  035%=      5-min Rain = 0
KQU1 241807Z 02012KT 10/M05 A302 RMK A01 T01041048  RH  034%=      5-min Rain = 0
KQU1 241808Z 03010KT 10/M05 A302 RMK A01 T01041046  RH  034%=      5-min Rain = 0
KQU1 241809Z 03009KT 10/M05 A302 RMK A01 T01031048  RH  034%=      5-min Rain = 0
KQU1 241810Z 03009KT 10/M05 A302 RMK A01 T01031045  RH  035%=      5-min Rain = 0
KQU1 241811Z 05009G14KT 10/M05 A302 RMK A01 T01041046  RH  035%=      5-min Rain = 0
KQU1 241812Z 05009KT 10/M05 A302 RMK A01 T01041048  RH  034%=      5-min Rain = 0
KQU1 241813Z 04007KT 10/M05 A302 RMK A01 T01041046  RH  035%=      5-min Rain = 0
KQU1 241814Z 02010KT 11/M05 A302 RMK A01 T01051046  RH  034%=      5-min Rain = 0
KQU1 241815Z 03013G19KT 11/M05 A302 RMK A01 T01061046  RH  034%=      5-min Rain = 0
KQU1 241816Z 02012KT 11/M05 A302 RMK A01 T01071046  RH  034%=      5-min Rain = 0
KQU1 241817Z 02012KT 11/M05 A302 RMK A01 T01071045  RH  034%=      5-min Rain = 0
KQU1 241818Z 02010G15KT 11/M05 A302 RMK A01 T01061047  RH  034%=      5-min Rain = 0
KQU1 241819Z 02008KT 11/M05 A302 RMK A01 T01061045  RH  034%=      5-min Rain = 0
KQU1 241820Z 03008KT 11/M05 A302 RMK A01 T01061048  RH  034%=      5-min Rain = 0
KQU1 241821Z 03006G11KT 11/M05 A302 RMK A01 T01071045  RH  034%=      5-min Rain = 0
KQU1 241822Z 05009G14KT 11/M05 A302 RMK A01 T01071046  RH  034%=      5-min Rain = 0
KQU1 241823Z 07011KT 11/M05 A302 RMK A01 T01081049  RH  033%=      5-min Rain = 0
KQU1 241824Z 06011KT 11/M05 A302 RMK A01 T01051050  RH  033%=      5-min Rain = 0
KQU1 241825Z 06009KT 10/M05 A3019 RMK A01 T01031050  RH  034%=      5-min Rain = 0
KQU1 241826Z 07006KT 10/M05 A3019 RMK A01 T01031050  RH  034%=      5-min Rain = 0
KQU1 241827Z 02004KT 11/M04 A3019 RMK A01 T01051044  RH  035%=      5-min Rain = 0
KQU1 241828Z 02007G14KT 11/M04 A3019 RMK A01 T01081041  RH  035%=      5-min Rain = 0
KQU1 241829Z 06006KT 11/M04 A3019 RMK A01 T01111043  RH  034%=      5-min Rain = 0
KQU1 241830Z 04008G13KT 11/M05 A3019 RMK A01 T01121046  RH  033%=      5-min Rain = 0
KQU1 241831Z 04008G13KT 11/M05 A3019 RMK A01 T01131046  RH  032%=      5-min Rain = 0
KQU1 241832Z 04010KT 11/M05 A3019 RMK A01 T01111050  RH  032%=      5-min Rain = 0
KQU1 241833Z 04007G13KT 11/M05 A3019 RMK A01 T01091049  RH  033%=      5-min Rain = 0
KQU1 241834Z 03007G13KT 11/M05 A3019 RMK A01 T01101047  RH  033%=      5-min Rain = 0
KQU1 241835Z 04009G14KT 11/M05 A3019 RMK A01 T01111048  RH  032%=      5-min Rain = 0
KQU1 241836Z 03010KT 11/M05 A3019 RMK A01 T01101048  RH  033%=      5-min Rain = 0
KQU1 241837Z 04007KT 11/M05 A3019 RMK A01 T01111047  RH  033%=      5-min Rain = 0
KQU1 241838Z 06010KT 11/M05 A3019 RMK A01 T01101050  RH  032%=      5-min Rain = 0
KQU1 241839Z 05009KT 11/M05 A3019 RMK A01 T01101049  RH  032%=      5-min Rain = 0
KQU1 241840Z 04010KT 11/M05 A3019 RMK A01 T01111048  RH  032%=      5-min Rain = 0
KQU1 241841Z 03011KT 11/M05 A3019 RMK A01 T01121048  RH  032%=      5-min Rain = 0
KQU1 241842Z 04006G11KT 11/M05 A3019 RMK A01 T01111050  RH  032%=      5-min Rain = 0
KQU1 241843Z 03009KT 11/M05 A3018 RMK A01 T01101051  RH  032%=      5-min Rain = 0
KQU1 241844Z 04008KT 11/M05 A3018 RMK A01 T01101052  RH  032%=      5-min Rain = 0
KQU1 241845Z 06006KT 11/M05 A3018 RMK A01 T01091051  RH  032%=      5-min Rain = 0
KQU1 241846Z 06011KT 11/M05 A3018 RMK A01 T01101051  RH  032%=      5-min Rain = 0
KQU1 241847Z 04008KT 11/M05 A3018 RMK A01 T01111051  RH  032%=      5-min Rain = 0
KQU1 241848Z 06011KT 11/M05 A3018 RMK A01 T01111052  RH  031%=      5-min Rain = 0
KQU1 241849Z 06009KT 11/M05 A3018 RMK A01 T01111049  RH  032%=      5-min Rain = 0
KQU1 241850Z 07007KT 11/M05 A3018 RMK A01 T01121049  RH  032%=      5-min Rain = 0
KQU1 241851Z 07007KT 11/M05 A3018 RMK A01 T01121048  RH  032%=      5-min Rain = 0
KQU1 241852Z 06010G15KT 11/M05 A3018 RMK A01 T01141049  RH  031%=      5-min Rain = 0
KQU1 241853Z 04010G15KT 11/M05 A3018 RMK A01 T01141053  RH  031%=      5-min Rain = 0
KQU1 241854Z 04009KT 11/M05 A3018 RMK A01 T01131054  RH  031%=      5-min Rain = 0
KQU1 241855Z 05011KT 11/M05 A3018 RMK A01 T01131053  RH  031%=      5-min Rain = 0
KQU1 241856Z 05009KT 11/M05 A3018 RMK A01 T01131053  RH  031%=      5-min Rain = 0
KQU1 241857Z 04008KT 11/M05 A3018 RMK A01 T01131050  RH  031%=      5-min Rain = 0
KQU1 241858Z 03010KT 11/M06 A3018 RMK A01 T01131055  RH  030%=      5-min Rain = 0
KQU1 241859Z 06009KT 11/M05 A3017 RMK A01 T01131051  RH  031%=      5-min Rain = 0
KQU1 241900Z 05007KT 11/M05 A3017 RMK A01 T01141052  RH  031%=      5-min Rain = 0
KQU1 241901Z 05007KT 11/M05 A3017 RMK A01 T01141053  RH  031%=      5-min Rain = 0
KQU1 241902Z 03004G9KT 12/M05 A3017 RMK A01 T01151048  RH  032%=      5-min Rain = 0
KQU1 241903Z 06012KT 12/M05 A3017 RMK A01 T01171052  RH  030%=      5-min Rain = 0
KQU1 241904Z 05010G15KT 12/M06 A3017 RMK A01 T01161057  RH  029%=      5-min Rain = 0
KQU1 241905Z 06008G13KT 12/M05 A3017 RMK A01 T01161053  RH  030%=      5-min Rain = 0
KQU1 241906Z 06010KT 12/M06 A3017 RMK A01 T01171057  RH  029%=      5-min Rain = 0
KQU1 241907Z 07009KT 12/M06 A3017 RMK A01 T01161057  RH  029%=      5-min Rain = 0
KQU1 241908Z 09007KT 12/M05 A3017 RMK A01 T01161054  RH  030%=      5-min Rain = 0
KQU1 241909Z 08008KT 12/M06 A3017 RMK A01 T01181057  RH  029%=      5-min Rain = 0
KQU1 241910Z 07007KT 12/M06 A3017 RMK A01 T01181055  RH  029%=      5-min Rain = 0
KQU1 241911Z 06008KT 12/M05 A3017 RMK A01 T01201051  RH  030%=      5-min Rain = 0
KQU1 241912Z 04007G13KT 12/M05 A3017 RMK A01 T01201053  RH  029%=      5-min Rain = 0
KQU1 241913Z 04004KT 12/M05 A3017 RMK A01 T01211052  RH  029%=      5-min Rain = 0
KQU1 241914Z 04007KT 12/M06 A3017 RMK A01 T01201058  RH  028%=      5-min Rain = 0
KQU1 241915Z 04009G14KT 12/M06 A3017 RMK A01 T01201056  RH  029%=      5-min Rain = 0
KQU1 241916Z 03010KT 12/M06 A3017 RMK A01 T01191056  RH  029%=      5-min Rain = 0
KQU1 241917Z 05009KT 12/M06 A3017 RMK A01 T01191055  RH  029%=      5-min Rain = 0
KQU1 241918Z 04008KT 12/M06 A3017 RMK A01 T01191056  RH  029%=      5-min Rain = 0
KQU1 241919Z 04007KT 12/M06 A3016 RMK A01 T01181059  RH  028%=      5-min Rain = 0
KQU1 241920Z 04009G14KT 12/M06 A3016 RMK A01 T01181057  RH  029%=      5-min Rain = 0
KQU1 241921Z 04007G12KT 12/M05 A3016 RMK A01 T01201053  RH  030%=      5-min Rain = 0
KQU1 241922Z 06009KT 12/M05 A3016 RMK A01 T01221052  RH  029%=      5-min Rain = 0
KQU1 241923Z 05008KT 12/M05 A3016 RMK A01 T01231053  RH  029%=      5-min Rain = 0
KQU1 241924Z 05011KT 12/M06 A3016 RMK A01 T01221058  RH  028%=      5-min Rain = 0
KQU1 241925Z 07011KT 12/M06 A3016 RMK A01 T01201059  RH  028%=      5-min Rain = 0
KQU1 241926Z 06011KT 12/M06 A3016 RMK A01 T01191059  RH  028%=      5-min Rain = 0
KQU1 241927Z 06009KT 12/M06 A3016 RMK A01 T01191061  RH  028%=      5-min Rain = 0
KQU1 241928Z 08005KT 12/M06 A3016 RMK A01 T01191060  RH  028%=      5-min Rain = 0
KQU1 241929Z 06005KT 12/M06 A3016 RMK A01 T01201059  RH  028%=      5-min Rain = 0
KQU1 241930Z 05005KT 12/M05 A3016 RMK A01 T01201054  RH  029%=      5-min Rain = 0
KQU1 241931Z 06010KT 12/M06 A3016 RMK A01 T01231055  RH  029%=      5-min Rain = 0
KQU1 241932Z 06008KT 12/M06 A3016 RMK A01 T01231059  RH  028%=      5-min Rain = 0
KQU1 241933Z 03006KT 12/M05 A3016 RMK A01 T01241052  RH  029%=      5-min Rain = 0
KQU1 241934Z 03009KT 13/M06 A3016 RMK A01 T01251057  RH  028%=      5-min Rain = 0
KQU1 241935Z 04010G16KT 13/M06 A3016 RMK A01 T01251060  RH  027%=      5-min Rain = 0
KQU1 241936Z 05012KT 12/M06 A3016 RMK A01 T01241063  RH  026%=      5-min Rain = 0
KQU1 241937Z 05010KT 12/M06 A3016 RMK A01 T01221064  RH  027%=      5-min Rain = 0
KQU1 241938Z 06012KT 12/M06 A3016 RMK A01 T01221064  RH  027%=      5-min Rain = 0
KQU1 241939Z 04010KT 12/M06 A3016 RMK A01 T01211064  RH  027%=      5-min Rain = 0
KQU1 241940Z 06007KT 12/M06 A3016 RMK A01 T01211064  RH  027%=      5-min Rain = 0
KQU1 241941Z 05006G11KT 12/M06 A3016 RMK A01 T01221060  RH  027%=      5-min Rain = 0
KQU1 241942Z 04007KT 12/M06 A3016 RMK A01 T01241058  RH  028%=      5-min Rain = 0
KQU1 241943Z 06006KT 13/M06 A3016 RMK A01 T01261059  RH  027%=      5-min Rain = 0
KQU1 241944Z 07006KT 13/M06 A3016 RMK A01 T01271063  RH  026%=      5-min Rain = 0
KQU1 241945Z 04008KT 13/M06 A3016 RMK A01 T01271061  RH  026%=      5-min Rain = 0
KQU1 241946Z 05009G14KT 13/M07 A3016 RMK A01 T01271066  RH  025%=      5-min Rain = 0
KQU1 241947Z 06012KT 13/M07 A3016 RMK A01 T01271073  RH  024%=      5-min Rain = 0
KQU1 241948Z 05010G15KT 13/M07 A3016 RMK A01 T01261071  RH  025%=      5-min Rain = 0
KQU1 241949Z 06010KT 13/M07 A3016 RMK A01 T01271071  RH  024%=      5-min Rain = 0
KQU1 241950Z 07010KT 13/M07 A3016 RMK A01 T01261072  RH  024%=      5-min Rain = 0
KQU1 241951Z 08009KT 13/M07 A3016 RMK A01 T01251070  RH  025%=      5-min Rain = 0
KQU1 241952Z 08007KT 13/M07 A3016 RMK A01 T01251066  RH  026%=      5-min Rain = 0
KQU1 241953Z 06006KT 13/M06 A3016 RMK A01 T01261064  RH  026%=      5-min Rain = 0
KQU1 241954Z 06009KT 13/M07 A3016 RMK A01 T01281065  RH  026%=      5-min Rain = 0
KQU1 241955Z 06011KT 13/M06 A3016 RMK A01 T01281064  RH  026%=      5-min Rain = 0
KQU1 241956Z 08009KT 13/M07 A3016 RMK A01 T01261068  RH  025%=      5-min Rain = 0
KQU1 241957Z 06008KT 13/M07 A3015 RMK A01 T01271067  RH  025%=      5-min Rain = 0
KQU1 241958Z 05006KT 13/M06 A3015 RMK A01 T01281063  RH  026%=      5-min Rain = 0
KQU1 241959Z 05005KT 13/M07 A3015 RMK A01 T01301066  RH  025%=      5-min Rain = 0
KQU1 242000Z 06007G12KT 13/M06 A3015 RMK A01 T01311064  RH  025%=      5-min Rain = 0
KQU1 242001Z 04011KT 13/M07 A3015 RMK A01 T01311067  RH  025%=      5-min Rain = 0
KQU1 242002Z 06008KT 13/M07 A3015 RMK A01 T01301070  RH  024%=      5-min Rain = 0
KQU1 242003Z 05005KT 13/M07 A3015 RMK A01 T01291070  RH  024%=      5-min Rain = 0
KQU1 242004Z 04004KT 13/M07 A3015 RMK A01 T01301070  RH  024%=      5-min Rain = 0
KQU1 242005Z 04003KT 13/M07 A3015 RMK A01 T01301071  RH  024%=      5-min Rain = 0
KQU1 242006Z 04003KT 13/M07 A3014 RMK A01 T01321065  RH  025%=      5-min Rain = 0
KQU1 242007Z 06008KT 13/M07 A3014 RMK A01 T01341067  RH  024%=      5-min Rain = 0
KQU1 242008Z 06007G14KT 14/M07 A3014 RMK A01 T01351068  RH  024%=      5-min Rain = 0
KQU1 242009Z 06009KT 13/M07 A3014 RMK A01 T01341070  RH  024%=      5-min Rain = 0
KQU1 242010Z 06010G15KT 13/M07 A3014 RMK A01 T01341069  RH  024%=      5-min Rain = 0
KQU1 242011Z 08009KT 13/M07 A3014 RMK A01 T01341068  RH  024%=      5-min Rain = 0
KQU1 242012Z 09009KT 13/M07 A3014 RMK A01 T01341071  RH  023%=      5-min Rain = 0
KQU1 242013Z 08009KT 13/M07 A3014 RMK A01 T01341073  RH  023%=      5-min Rain = 0
KQU1 242014Z 07007KT 13/M07 A3014 RMK A01 T01341071  RH  023%=      5-min Rain = 0
KQU1 242015Z 05007KT 13/M07 A3014 RMK A01 T01341067  RH  024%=      5-min Rain = 0
KQU1 242016Z 05008KT 13/M07 A3014 RMK A01 T01341071  RH  023%=      5-min Rain = 0
KQU1 242017Z 06008KT 13/M08 A3014 RMK A01 T01341075  RH  023%=      5-min Rain = 0
KQU1 242018Z 04007G12KT 13/M08 A3014 RMK A01 T01321075  RH  023%=      5-min Rain = 0
KQU1 242019Z 04006KT 13/M07 A3014 RMK A01 T01311072  RH  024%=      5-min Rain = 0
KQU1 242020Z 04005KT 13/M07 A3014 RMK A01 T01321069  RH  024%=      5-min Rain = 0
KQU1 242021Z 02008G14KT 13/M07 A3014 RMK A01 T01341069  RH  024%=      5-min Rain = 0
KQU1 242022Z 05008KT 14/M07 A3014 RMK A01 T01351073  RH  023%=      5-min Rain = 0
KQU1 242023Z 07010KT 14/M08 A3014 RMK A01 T01361084  RH  021%=      5-min Rain = 0
KQU1 242024Z 07007KT 14/M10 A3014 RMK A01 T01351095  RH  019%=      5-min Rain = 0
KQU1 242025Z 06004KT 14/M09 A3014 RMK A01 T01351091  RH  020%=      5-min Rain = 0
KQU1 242026Z 07006KT 14/M09 A3014 RMK A01 T01361085  RH  021%=      5-min Rain = 0
KQU1 242027Z 07006KT 14/M08 A3014 RMK A01 T01361084  RH  021%=      5-min Rain = 0
KQU1 242028Z 05009G14KT 14/M08 A3014 RMK A01 T01361080  RH  021%=      5-min Rain = 0
KQU1 242029Z 06008KT 14/M08 A3014 RMK A01 T01371078  RH  022%=      5-min Rain = 0
KQU1 242030Z 07007G12KT 14/M08 A3014 RMK A01 T01371080  RH  021%=      5-min Rain = 0
KQU1 242031Z 06012KT 14/M08 A3013 RMK A01 T01371083  RH  021%=      5-min Rain = 0
KQU1 242032Z 06011KT 14/M09 A3013 RMK A01 T01361087  RH  020%=      5-min Rain = 0
KQU1 242033Z 07010KT 14/M09 A3013 RMK A01 T01351086  RH  021%=      5-min Rain = 0
KQU1 242034Z 06010KT 14/M09 A3013 RMK A01 T01351092  RH  020%=      5-min Rain = 0
KQU1 242035Z 06010KT 13/M09 A3013 RMK A01 T01341093  RH  020%=      5-min Rain = 0
KQU1 242036Z 07011KT 13/M09 A3013 RMK A01 T01341089  RH  020%=      5-min Rain = 0
KQU1 242037Z 09009G14KT 13/M09 A3013 RMK A01 T01341088  RH  021%=      5-min Rain = 0
KQU1 242038Z 09011KT 14/M08 A3013 RMK A01 T01361082  RH  021%=      5-min Rain = 0
KQU1 242039Z 09008KT 14/M09 A3013 RMK A01 T01391087  RH  020%=      5-min Rain = 0
KQU1 242040Z 10009KT 14/M09 A3013 RMK A01 T01391086  RH  020%=      5-min Rain = 0
KQU1 242041Z 05007KT 14/M09 A3013 RMK A01 T01401088  RH  020%=      5-min Rain = 0
KQU1 242042Z 07010KT 14/M09 A3013 RMK A01 T01401089  RH  020%=      5-min Rain = 0
KQU1 242043Z 07008KT 14/M09 A3013 RMK A01 T01381092  RH  019%=      5-min Rain = 0
KQU1 242044Z 09010KT 14/M09 A3013 RMK A01 T01391094  RH  019%=      5-min Rain = 0
KQU1 242045Z 10008KT 14/M10 A3013 RMK A01 T01401095  RH  019%=      5-min Rain = 0
KQU1 242046Z 07006KT 14/M09 A3013 RMK A01 T01421089  RH  019%=      5-min Rain = 0
KQU1 242047Z 06006KT 14/M09 A3013 RMK A01 T01421088  RH  019%=      5-min Rain = 0
KQU1 242048Z 07005KT 14/M09 A3013 RMK A01 T01431089  RH  019%=      5-min Rain = 0
KQU1 242049Z 07012KT 14/M09 A3013 RMK A01 T01441093  RH  019%=      5-min Rain = 0
KQU1 242050Z 08012KT 14/M09 A3013 RMK A01 T01411094  RH  019%=      5-min Rain = 0
KQU1 242051Z 08012G17KT 14/M09 A3013 RMK A01 T01401093  RH  019%=      5-min Rain = 0
KQU1 242052Z 07011KT 14/M10 A3013 RMK A01 T01391101  RH  018%=      5-min Rain = 0
KQU1 242053Z 08010KT 14/M10 A3013 RMK A01 T01371097  RH  019%=      5-min Rain = 0
KQU1 242054Z 09007KT 14/M09 A3013 RMK A01 T01381094  RH  019%=      5-min Rain = 0
KQU1 242055Z 08005KT 14/M10 A3013 RMK A01 T01401095  RH  019%=      5-min Rain = 0
KQU1 242056Z 08004KT 14/M10 A3013 RMK A01 T01401098  RH  018%=      5-min Rain = 0
KQU1 242057Z 07003KT 14/M10 A3013 RMK A01 T01411097  RH  018%=      5-min Rain = 0
KQU1 242058Z 08006G12KT 14/M09 A3013 RMK A01 T01411094  RH  019%=      5-min Rain = 0
KQU1 242059Z 07010KT 14/M10 A3013 RMK A01 T01401097  RH  018%=      5-min Rain = 0
KQU1 242100Z 07011KT 14/M09 A3013 RMK A01 T01391093  RH  019%=      5-min Rain = 0
KQU1 242101Z 07010G15KT 14/M10 A3013 RMK A01 T01381096  RH  019%=      5-min Rain = 0
KQU1 242102Z 06010KT 14/M10 A3013 RMK A01 T01371095  RH  019%=      5-min Rain = 0
KQU1 242103Z 08009KT 14/M09 A3013 RMK A01 T01371092  RH  020%=      5-min Rain = 0
KQU1 242104Z 09009KT 14/M09 A3013 RMK A01 T01391092  RH  019%=      5-min Rain = 0
KQU1 242105Z 10008KT 14/M09 A3013 RMK A01 T01411090  RH  019%=      5-min Rain = 0
KQU1 242106Z 11008KT 14/M09 A3013 RMK A01 T01421094  RH  019%=      5-min Rain = 0
KQU1 242107Z 11010KT 14/M09 A3013 RMK A01 T01421093  RH  019%=      5-min Rain = 0
KQU1 242108Z 11009KT 14/M09 A3013 RMK A01 T01421092  RH  019%=      5-min Rain = 0
KQU1 242109Z 11007KT 14/M09 A3013 RMK A01 T01421090  RH  019%=      5-min Rain = 0
KQU1 242110Z 11007KT 14/M09 A3013 RMK A01 T01431092  RH  019%=      5-min Rain = 0
KQU1 242111Z 08007KT 14/M09 A3013 RMK A01 T01431089  RH  019%=      5-min Rain = 0
KQU1 242112Z 08009KT 14/M09 A3013 RMK A01 T01431092  RH  019%=      5-min Rain = 0
KQU1 242113Z 07008KT 14/M09 A3013 RMK A01 T01421092  RH  019%=      5-min Rain = 0
KQU1 242114Z 07007KT 14/M10 A3013 RMK A01 T01401095  RH  019%=      5-min Rain = 0
KQU1 242115Z 07004KT 14/M09 A3013 RMK A01 T01391091  RH  019%=      5-min Rain = 0
KQU1 242116Z 07006KT 14/M10 A3013 RMK A01 T01391095  RH  019%=      5-min Rain = 0
KQU1 242117Z 09007KT 14/M09 A3013 RMK A01 T01391091  RH  019%=      5-min Rain = 0
KQU1 242118Z 08009KT 14/M09 A3013 RMK A01 T01411089  RH  019%=      5-min Rain = 0
KQU1 242119Z 08008KT 14/M09 A3013 RMK A01 T01421085  RH  020%=      5-min Rain = 0
KQU1 242120Z 09008KT 14/M09 A3013 RMK A01 T01441088  RH  019%=      5-min Rain = 0
KQU1 242121Z 08006KT 15/M09 A3013 RMK A01 T01451089  RH  019%=      5-min Rain = 0
KQU1 242122Z 07010KT 14/M09 A3013 RMK A01 T01441092  RH  019%=      5-min Rain = 0
KQU1 242123Z 07011KT 14/M10 A3013 RMK A01 T01411095  RH  019%=      5-min Rain = 0
KQU1 242124Z 07007KT 14/M09 A3013 RMK A01 T01401087  RH  020%=      5-min Rain = 0
KQU1 242125Z 05006KT 14/M09 A3013 RMK A01 T01411086  RH  020%=      5-min Rain = 0
KQU1 242126Z 06007KT 14/M08 A3013 RMK A01 T01421084  RH  020%=      5-min Rain = 0
KQU1 242127Z 07008KT 14/M09 A3013 RMK A01 T01421087  RH  020%=      5-min Rain = 0
KQU1 242128Z 08006KT 14/M09 A3013 RMK A01 T01411094  RH  019%=      5-min Rain = 0
KQU1 242129Z 08009KT 14/M09 A3013 RMK A01 T01411091  RH  019%=      5-min Rain = 0
KQU1 242130Z 06009KT 14/M09 A3013 RMK A01 T01411090  RH  019%=      5-min Rain = 0
KQU1 242131Z 07010KT 14/M09 A3013 RMK A01 T01421090  RH  019%=      5-min Rain = 0
KQU1 242132Z 07008KT 14/M09 A3013 RMK A01 T01411093  RH  019%=      5-min Rain = 0
KQU1 242133Z 06008KT 14/M09 A3013 RMK A01 T01411093  RH  019%=      5-min Rain = 0
KQU1 242134Z 07007KT 14/M09 A3013 RMK A01 T01411091  RH  019%=      5-min Rain = 0
KQU1 242135Z 07008KT 14/M09 A3013 RMK A01 T01411089  RH  019%=      5-min Rain = 0
KQU1 242136Z 06007KT 14/M09 A3013 RMK A01 T01401091  RH  019%=      5-min Rain = 0
KQU1 242137Z 09006KT 14/M09 A3013 RMK A01 T01401089  RH  020%=      5-min Rain = 0
KQU1 242138Z 10006KT 14/M09 A3013 RMK A01 T01421092  RH  019%=      5-min Rain = 0
KQU1 242139Z 10012KT 14/M10 A3012 RMK A01 T01441100  RH  017%=      5-min Rain = 0
KQU1 242140Z 10011KT 15/M10 A3012 RMK A01 T01451103  RH  017%=      5-min Rain = 0
KQU1 242141Z 12012KT 15/M10 A3012 RMK A01 T01451104  RH  017%=      5-min Rain = 0
KQU1 242142Z 13007KT 15/M10 A3012 RMK A01 T01451103  RH  017%=      5-min Rain = 0
KQU1 242143Z 11008KT 15/M10 A3012 RMK A01 T01461104  RH  017%=      5-min Rain = 0
KQU1 242144Z 10006KT 15/M10 A3012 RMK A01 T01471101  RH  017%=      5-min Rain = 0
KQU1 242145Z 10007KT 15/M09 A3012 RMK A01 T01481093  RH  018%=      5-min Rain = 0
KQU1 242146Z 11010KT 15/M09 A3012 RMK A01 T01501094  RH  018%=      5-min Rain = 0
KQU1 242147Z 11010KT 15/M10 A3012 RMK A01 T01501096  RH  017%=      5-min Rain = 0
KQU1 242148Z 11009KT 15/M10 A3012 RMK A01 T01481095  RH  018%=      5-min Rain = 0
KQU1 242149Z 11008KT 15/M10 A3012 RMK A01 T01471099  RH  017%=      5-min Rain = 0
KQU1 242150Z 10008KT 15/M10 A3012 RMK A01 T01461095  RH  018%=      5-min Rain = 0
KQU1 242151Z 08010KT 15/M10 A3012 RMK A01 T01451099  RH  017%=      5-min Rain = 0
KQU1 242152Z 07009KT 14/M10 A3012 RMK A01 T01441098  RH  018%=      5-min Rain = 0
KQU1 242153Z 08012KT 14/M10 A3012 RMK A01 T01441097  RH  018%=      5-min Rain = 0
KQU1 242154Z 06009KT 14/M10 A3012 RMK A01 T01431100  RH  018%=      5-min Rain = 0
KQU1 242155Z 06008KT 14/M10 A3012 RMK A01 T01421099  RH  018%=      5-min Rain = 0
KQU1 242156Z 08011KT 14/M10 A3012 RMK A01 T01411100  RH  018%=      5-min Rain = 0
KQU1 242157Z 10012KT 14/M10 A3012 RMK A01 T01421099  RH  018%=      5-min Rain = 0
KQU1 242158Z 11012KT 14/M10 A3012 RMK A01 T01441104  RH  017%=      5-min Rain = 0
KQU1 242159Z 11012KT 15/M10 A3012 RMK A01 T01451101  RH  017%=      5-min Rain = 0
KQU1 242200Z 11010KT 15/M11 A3012 RMK A01 T01461105  RH  017%=      5-min Rain = 0
KQU1 242201Z 11008KT 15/M11 A3012 RMK A01 T01451107  RH  016%=      5-min Rain = 0
KQU1 242202Z 10007KT 15/M10 A3012 RMK A01 T01451102  RH  017%=      5-min Rain = 0
KQU1 242203Z 11009KT 15/M10 A3012 RMK A01 T01451100  RH  017%=      5-min Rain = 0
KQU1 242204Z 10010KT 15/M09 A3012 RMK A01 T01461093  RH  018%=      5-min Rain = 0
KQU1 242205Z 09007KT 15/M10 A3012 RMK A01 T01471098  RH  017%=      5-min Rain = 0
KQU1 242206Z 11007KT 15/M09 A3012 RMK A01 T01471094  RH  018%=      5-min Rain = 0
KQU1 242207Z 13009KT 15/M10 A3012 RMK A01 T01481098  RH  017%=      5-min Rain = 0
KQU1 242208Z 10009KT 15/M10 A3012 RMK A01 T01481096  RH  018%=      5-min Rain = 0
KQU1 242209Z 10008KT 15/M10 A3012 RMK A01 T01471096  RH  018%=      5-min Rain = 0
KQU1 242210Z 10010KT 15/M09 A3012 RMK A01 T01471091  RH  018%=      5-min Rain = 0
KQU1 242211Z 11011KT 15/M10 A3012 RMK A01 T01471096  RH  018%=      5-min Rain = 0
KQU1 242212Z 12007KT 15/M10 A3012 RMK A01 T01461099  RH  017%=      5-min Rain = 0
KQU1 242213Z 11007KT 15/M09 A3012 RMK A01 T01461094  RH  018%=      5-min Rain = 0
KQU1 242214Z 09009KT 15/M09 A3012 RMK A01 T01471094  RH  018%=      5-min Rain = 0
KQU1 242215Z 09007KT 15/M10 A3012 RMK A01 T01461101  RH  017%=      5-min Rain = 0
KQU1 242216Z 10010KT 15/M10 A3012 RMK A01 T01451096  RH  018%=      5-min Rain = 0
KQU1 242217Z 10009KT 15/M10 A3012 RMK A01 T01461097  RH  018%=      5-min Rain = 0
KQU1 242218Z 10012KT 15/M10 A3012 RMK A01 T01461097  RH  018%=      5-min Rain = 0
KQU1 242219Z 09010KT 15/M09 A3012 RMK A01 T01461093  RH  018%=      5-min Rain = 0
KQU1 242220Z 09013KT 15/M10 A3012 RMK A01 T01461096  RH  018%=      5-min Rain = 0
KQU1 242221Z 09011KT 15/M09 A3012 RMK A01 T01451093  RH  018%=      5-min Rain = 0
KQU1 242222Z 08011KT 15/M10 A3012 RMK A01 T01451097  RH  018%=      5-min Rain = 0
KQU1 242223Z 10010KT 14/M09 A3012 RMK A01 T01441094  RH  018%=      5-min Rain = 0
KQU1 242224Z 08008KT 14/M10 A3012 RMK A01 T01431096  RH  018%=      5-min Rain = 0
KQU1 242225Z 08007KT 14/M10 A3012 RMK A01 T01431097  RH  018%=      5-min Rain = 0
KQU1 242226Z 08006KT 14/M10 A3012 RMK A01 T01421097  RH  018%=      5-min Rain = 0
KQU1 242227Z 09005KT 14/M10 A3012 RMK A01 T01421098  RH  018%=      5-min Rain = 0
KQU1 242228Z 10004KT 14/M10 A3012 RMK A01 T01411096  RH  018%=      5-min Rain = 0
KQU1 242229Z 10007KT 14/M10 A3012 RMK A01 T01421097  RH  018%=      5-min Rain = 0
KQU1 242230Z 10007KT 14/M10 A3012 RMK A01 T01421099  RH  018%=      5-min Rain = 0
KQU1 242231Z 09008KT 14/M10 A3012 RMK A01 T01421097  RH  018%=      5-min Rain = 0
KQU1 242232Z 11009KT 14/M10 A3012 RMK A01 T01431097  RH  018%=      5-min Rain = 0
KQU1 242233Z 09011KT 14/M10 A3012 RMK A01 T01441095  RH  018%=      5-min Rain = 0
KQU1 242234Z 11011KT 14/M10 A3012 RMK A01 T01441097  RH  018%=      5-min Rain = 0
KQU1 242235Z 11013KT 14/M10 A3012 RMK A01 T01441096  RH  018%=      5-min Rain = 0
KQU1 242236Z 11012KT 14/M10 A3012 RMK A01 T01431097  RH  018%=      5-min Rain = 0
KQU1 242237Z 11013KT 14/M10 A3012 RMK A01 T01431096  RH  018%=      5-min Rain = 0
KQU1 242238Z 10009KT 14/M10 A3012 RMK A01 T01431095  RH  018%=      5-min Rain = 0
KQU1 242239Z 10008KT 14/M09 A3012 RMK A01 T01431092  RH  019%=      5-min Rain = 0
KQU1 242240Z 11006KT 14/M10 A3012 RMK A01 T01441096  RH  018%=      5-min Rain = 0
KQU1 242241Z 10007KT 14/M10 A3012 RMK A01 T01441095  RH  018%=      5-min Rain = 0
KQU1 242242Z 08007KT 14/M09 A3012 RMK A01 T01441091  RH  019%=      5-min Rain = 0
KQU1 242243Z 07010KT 14/M10 A3012 RMK A01 T01431097  RH  018%=      5-min Rain = 0
KQU1 242244Z 08009KT 14/M10 A3012 RMK A01 T01411097  RH  018%=      5-min Rain = 0
KQU1 242245Z 08007KT 14/M09 A3012 RMK A01 T01401093  RH  019%=      5-min Rain = 0
KQU1 242246Z 07010KT 14/M09 A3012 RMK A01 T01401093  RH  019%=      5-min Rain = 0
KQU1 242247Z 08009KT 14/M09 A3012 RMK A01 T01391094  RH  019%=      5-min Rain = 0
KQU1 242248Z 09009G14KT 14/M09 A3012 RMK A01 T01391091  RH  019%=      5-min Rain = 0
KQU1 242249Z 07008KT 14/M09 A3012 RMK A01 T01401090  RH  019%=      5-min Rain = 0
KQU1 242250Z 07013KT 14/M10 A3012 RMK A01 T01401095  RH  019%=      5-min Rain = 0
KQU1 242251Z 08010G16KT 14/M09 A3012 RMK A01 T01391092  RH  019%=      5-min Rain = 0
KQU1 242252Z 10009KT 14/M09 A3012 RMK A01 T01401088  RH  020%=      5-min Rain = 0
KQU1 242253Z 10011KT 14/M09 A3012 RMK A01 T01411089  RH  019%=      5-min Rain = 0
KQU1 242254Z 09012KT 14/M09 A3012 RMK A01 T01421090  RH  019%=      5-min Rain = 0
KQU1 242255Z 10013KT 14/M09 A3012 RMK A01 T01411091  RH  019%=      5-min Rain = 0
KQU1 242256Z 08010KT 14/M09 A3012 RMK A01 T01391090  RH  020%=      5-min Rain = 0
KQU1 242257Z 08008KT 14/M09 A3012 RMK A01 T01391090  RH  019%=      5-min Rain = 0
KQU1 242258Z 09007KT 14/M09 A3012 RMK A01 T01391089  RH  020%=      5-min Rain = 0
KQU1 242259Z 11009KT 14/M09 A3012 RMK A01 T01391089  RH  020%=      5-min Rain = 0
KQU1 242300Z 12009KT 14/M09 A3012 RMK A01 T01401090  RH  019%=      5-min Rain = 0
KQU1 242301Z 13009KT 14/M09 A3012 RMK A01 T01401091  RH  019%=      5-min Rain = 0
KQU1 242302Z 12008KT 14/M09 A3012 RMK A01 T01401093  RH  019%=      5-min Rain = 0
KQU1 242303Z 12009KT 14/M09 A3012 RMK A01 T01401091  RH  019%=      5-min Rain = 0
KQU1 242304Z 12007KT 14/M09 A3012 RMK A01 T01401092  RH  019%=      5-min Rain = 0
KQU1 242305Z 11007KT 14/M09 A3012 RMK A01 T01401089  RH  020%=      5-min Rain = 0
KQU1 242306Z 08009G14KT 14/M09 A3012 RMK A01 T01401092  RH  019%=      5-min Rain = 0
KQU1 242307Z 07012KT 14/M09 A3012 RMK A01 T01391092  RH  019%=      5-min Rain = 0
KQU1 242308Z 09009KT 14/M09 A3013 RMK A01 T01381094  RH  019%=      5-min Rain = 0
KQU1 242309Z 09009KT 14/M09 A3013 RMK A01 T01371090  RH  020%=      5-min Rain = 0
KQU1 242310Z 08009KT 14/M09 A3013 RMK A01 T01371093  RH  019%=      5-min Rain = 0
KQU1 242311Z 09011KT 14/M09 A3013 RMK A01 T01371093  RH  019%=      5-min Rain = 0
KQU1 242312Z 08007KT 14/M09 A3013 RMK A01 T01371094  RH  019%=      5-min Rain = 0
KQU1 242313Z 08006KT 14/M10 A3012 RMK A01 T01371095  RH  019%=      5-min Rain = 0
KQU1 242314Z 09006KT 14/M10 A3012 RMK A01 T01371095  RH  019%=      5-min Rain = 0
KQU1 242315Z 09008KT 14/M09 A3012 RMK A01 T01371093  RH  019%=      5-min Rain = 0
KQU1 242316Z 09009KT 14/M09 A3012 RMK A01 T01371094  RH  019%=      5-min Rain = 0
KQU1 242317Z 09008KT 14/M10 A3012 RMK A01 T01371098  RH  019%=      5-min Rain = 0
KQU1 242318Z 09007KT 14/M10 A3012 RMK A01 T01361095  RH  019%=      5-min Rain = 0
KQU1 242319Z 08005KT 14/M10 A3012 RMK A01 T01361096  RH  019%=      5-min Rain = 0
KQU1 242320Z 06006KT 14/M09 A3012 RMK A01 T01361094  RH  019%=      5-min Rain = 0
KQU1 242321Z 06008KT 14/M09 A3012 RMK A01 T01361089  RH  020%=      5-min Rain = 0
KQU1 242322Z 06008KT 14/M09 A3012 RMK A01 T01361091  RH  020%=      5-min Rain = 0
KQU1 242323Z 08010KT 13/M09 A3012 RMK A01 T01341093  RH  020%=      5-min Rain = 0
KQU1 242324Z 10010KT 13/M10 A3012 RMK A01 T01341095  RH  019%=      5-min Rain = 0
KQU1 242325Z 09009KT 14/M09 A3012 RMK A01 T01351094  RH  020%=      5-min Rain = 0
KQU1 242326Z 08007KT 14/M10 A3012 RMK A01 T01351096  RH  019%=      5-min Rain = 0
KQU1 242327Z 07008KT 14/M09 A3012 RMK A01 T01351094  RH  019%=      5-min Rain = 0
KQU1 242328Z 07008KT 14/M09 A3012 RMK A01 T01351094  RH  020%=      5-min Rain = 0
KQU1 242329Z 08006KT 13/M09 A3012 RMK A01 T01341090  RH  020%=      5-min Rain = 0
KQU1 242330Z 08005KT 14/M09 A3012 RMK A01 T01351088  RH  020%=      5-min Rain = 0
KQU1 242331Z 08008KT 14/M09 A3012 RMK A01 T01361093  RH  019%=      5-min Rain = 0
KQU1 242332Z 08008KT 14/M09 A3012 RMK A01 T01351093  RH  020%=      5-min Rain = 0
KQU1 242333Z 09010KT 14/M09 A3012 RMK A01 T01351092  RH  020%=      5-min Rain = 0
KQU1 242334Z 09009KT 14/M09 A3012 RMK A01 T01351091  RH  020%=      5-min Rain = 0
KQU1 242335Z 09007KT 14/M09 A3012 RMK A01 T01351090  RH  020%=      5-min Rain = 0
KQU1 242336Z 10008KT 14/M09 A3012 RMK A01 T01351090  RH  020%=      5-min Rain = 0
KQU1 242337Z 11010KT 14/M09 A3013 RMK A01 T01351093  RH  020%=      5-min Rain = 0
KQU1 242338Z 12011KT 14/M10 A3012 RMK A01 T01351095  RH  019%=      5-min Rain = 0
KQU1 242339Z 11009KT 13/M09 A3012 RMK A01 T01341094  RH  020%=      5-min Rain = 0
KQU1 242340Z 09007KT 13/M09 A3013 RMK A01 T01341090  RH  020%=      5-min Rain = 0
KQU1 242341Z 09006KT 13/M09 A3013 RMK A01 T01341091  RH  020%=      5-min Rain = 0
KQU1 242342Z 08006KT 13/M10 A3013 RMK A01 T01341095  RH  019%=      5-min Rain = 0
KQU1 242343Z 09007KT 13/M09 A3013 RMK A01 T01341094  RH  020%=      5-min Rain = 0
KQU1 242344Z 09007KT 13/M09 A3013 RMK A01 T01341092  RH  020%=      5-min Rain = 0
KQU1 242345Z 09009KT 13/M10 A3013 RMK A01 T01331096  RH  019%=      5-min Rain = 0
KQU1 242346Z 09008KT 13/M10 A3013 RMK A01 T01331095  RH  020%=      5-min Rain = 0
KQU1 242347Z 09009KT 13/M09 A3013 RMK A01 T01321094  RH  020%=      5-min Rain = 0
KQU1 242348Z 09008KT 13/M09 A3013 RMK A01 T01321094  RH  020%=      5-min Rain = 0
KQU1 242349Z 09007KT 13/M09 A3013 RMK A01 T01321092  RH  020%=      5-min Rain = 0
KQU1 242350Z 09009KT 13/M09 A3013 RMK A01 T01321094  RH  020%=      5-min Rain = 0
KQU1 242351Z 10007KT 13/M09 A3013 RMK A01 T01321094  RH  020%=      5-min Rain = 0
KQU1 242352Z 09008KT 13/M09 A3013 RMK A01 T01321094  RH  020%=      5-min Rain = 0
KQU1 242353Z 09009KT 13/M10 A3013 RMK A01 T01321095  RH  020%=      5-min Rain = 0
KQU1 242354Z 09009KT 13/M09 A3013 RMK A01 T01311094  RH  020%=      5-min Rain = 0
KQU1 242355Z 10010KT 13/M09 A3013 RMK A01 T01311093  RH  020%=      5-min Rain = 0
KQU1 242356Z 10007KT 13/M09 A3013 RMK A01 T01311091  RH  020%=      5-min Rain = 0
KQU1 242357Z 10007KT 13/M09 A3013 RMK A01 T01311090  RH  021%=      5-min Rain = 0
KQU1 242358Z 09007KT 13/M09 A3013 RMK A01 T01311090  RH  021%=      5-min Rain = 0
KQU1 242359Z 09009KT 13/M09 A3013 RMK A01 T01301091  RH  021%=      5-min Rain = 0
KQU1 250000Z 09009KT 13/M09 A3013 RMK A01 T01301091  RH  021%=      5-min Rain = 0
KQU1 250001Z 10008KT 13/M09 A3013 RMK A01 T01291089  RH  021%=      5-min Rain = 0
KQU1 250002Z 10009KT 13/M09 A3013 RMK A01 T01291091  RH  021%=      5-min Rain = 0
KQU1 250003Z 10008KT 13/M09 A3013 RMK A01 T01291088  RH  021%=      5-min Rain = 0
KQU1 250004Z 10008KT 13/M09 A3014 RMK A01 T01281088  RH  021%=      5-min Rain = 0
KQU1 250005Z 11008KT 13/M09 A3014 RMK A01 T01281090  RH  021%=      5-min Rain = 0
KQU1 250006Z 11007KT 13/M09 A3014 RMK A01 T01281088  RH  021%=      5-min Rain = 0
KQU1 250007Z 10007KT 13/M09 A3014 RMK A01 T01281088  RH  021%=      5-min Rain = 0
KQU1 250008Z 10007KT 13/M09 A3014 RMK A01 T01271088  RH  021%=      5-min Rain = 0
KQU1 250009Z 10005KT 13/M09 A3014 RMK A01 T01271086  RH  022%=      5-min Rain = 0
KQU1 250010Z 10007KT 13/M09 A3014 RMK A01 T01271087  RH  022%=      5-min Rain = 0
KQU1 250011Z 10006KT 13/M09 A3014 RMK A01 T01271087  RH  022%=      5-min Rain = 0
KQU1 250012Z 10006KT 13/M09 A3014 RMK A01 T01261090  RH  021%=      5-min Rain = 0
KQU1 250013Z 10006KT 13/M09 A3014 RMK A01 T01261086  RH  022%=      5-min Rain = 0
KQU1 250014Z 11005KT 13/M09 A3014 RMK A01 T01261087  RH  022%=      5-min Rain = 0
KQU1 250015Z 10005KT 13/M09 A3014 RMK A01 T01251085  RH  022%=      5-min Rain = 0
KQU1 250016Z 10008KT 13/M09 A3014 RMK A01 T01251087  RH  022%=      5-min Rain = 0
KQU1 250017Z 09008KT 12/M09 A3014 RMK A01 T01241088  RH  022%=      5-min Rain = 0
KQU1 250018Z 09006KT 12/M09 A3014 RMK A01 T01231088  RH  022%=      5-min Rain = 0
KQU1 250019Z 09006KT 12/M09 A3014 RMK A01 T01231090  RH  022%=      5-min Rain = 0
KQU1 250020Z 09007KT 12/M09 A3014 RMK A01 T01231090  RH  022%=      5-min Rain = 0
KQU1 250021Z 10008KT 12/M09 A3014 RMK A01 T01221089  RH  022%=      5-min Rain = 0
KQU1 250022Z 10007KT 12/M09 A3014 RMK A01 T01221088  RH  022%=      5-min Rain = 0
KQU1 250023Z 10007KT 12/M09 A3014 RMK A01 T01211088  RH  022%=      5-min Rain = 0
KQU1 250024Z 09007KT 12/M09 A3014 RMK A01 T01201090  RH  022%=      5-min Rain = 0
KQU1 250025Z 09006KT 12/M09 A3014 RMK A01 T01191089  RH  022%=      5-min Rain = 0
KQU1 250026Z 08006KT 12/M09 A3014 RMK A01 T01191090  RH  022%=      5-min Rain = 0
KQU1 250027Z 09005KT 12/M09 A3014 RMK A01 T01181089  RH  023%=      5-min Rain = 0
KQU1 250028Z 08006KT 12/M09 A3014 RMK A01 T01181088  RH  023%=      5-min Rain = 0
KQU1 250029Z 08004KT 12/M09 A3015 RMK A01 T01171089  RH  023%=      5-min Rain = 0
KQU1 250030Z 08004KT 12/M09 A3015 RMK A01 T01171088  RH  023%=      5-min Rain = 0
KQU1 250031Z 08004KT 12/M09 A3015 RMK A01 T01171088  RH  023%=      5-min Rain = 0
KQU1 250032Z 08004KT 12/M09 A3015 RMK A01 T01161088  RH  023%=      5-min Rain = 0
KQU1 250033Z 08004KT 12/M09 A3015 RMK A01 T01161087  RH  023%=      5-min Rain = 0
KQU1 250034Z 08004KT 12/M09 A3015 RMK A01 T01151086  RH  024%=      5-min Rain = 0
KQU1 250035Z 08004KT 12/M09 A3015 RMK A01 T01151086  RH  024%=      5-min Rain = 0
KQU1 250036Z 08004KT 11/M09 A3015 RMK A01 T01141086  RH  024%=      5-min Rain = 0
KQU1 250037Z 08005KT 11/M09 A3015 RMK A01 T01141088  RH  023%=      5-min Rain = 0
KQU1 250038Z 08004KT 11/M09 A3015 RMK A01 T01141088  RH  023%=      5-min Rain = 0
KQU1 250039Z 08005KT 11/M09 A3015 RMK A01 T01141088  RH  023%=      5-min Rain = 0
KQU1 250040Z 08004KT 11/M09 A3015 RMK A01 T01141087  RH  024%=      5-min Rain = 0
KQU1 250041Z 08004KT 11/M09 A3015 RMK A01 T01131087  RH  024%=      5-min Rain = 0
KQU1 250042Z 08005KT 11/M09 A3015 RMK A01 T01121087  RH  024%=      5-min Rain = 0
KQU1 250043Z 08004KT 11/M09 A3015 RMK A01 T01121088  RH  024%=      5-min Rain = 0
KQU1 250044Z 09005KT 11/M09 A3015 RMK A01 T01121088  RH  024%=      5-min Rain = 0
KQU1 250045Z 09004KT 11/M09 A3015 RMK A01 T01111088  RH  024%=      5-min Rain = 0
KQU1 250046Z 09004KT 11/M09 A3015 RMK A01 T01111088  RH  024%=      5-min Rain = 0
KQU1 250047Z 09005KT 11/M09 A3015 RMK A01 T01101088  RH  024%=      5-min Rain = 0
KQU1 250048Z 10004KT 11/M08 A3016 RMK A01 T01101084  RH  025%=      5-min Rain = 0
KQU1 250049Z 10004KT 11/M08 A3016 RMK A01 T01091084  RH  025%=      5-min Rain = 0
KQU1 250050Z 09004KT 11/M08 A3016 RMK A01 T01081083  RH  025%=      5-min Rain = 0
KQU1 250051Z 09005KT 11/M08 A3016 RMK A01 T01071084  RH  025%=      5-min Rain = 0
KQU1 250052Z 09004KT 11/M08 A3016 RMK A01 T01061083  RH  026%=      5-min Rain = 0
KQU1 250053Z 09004KT 11/M08 A3016 RMK A01 T01051083  RH  026%=      5-min Rain = 0
KQU1 250054Z 09005KT 10/M09 A3016 RMK A01 T01041085  RH  025%=      5-min Rain = 0
KQU1 250055Z 09005KT 11/M09 A3016 RMK A01 T01051085  RH  025%=      5-min Rain = 0
KQU1 250056Z 09005KT 10/M08 A3016 RMK A01 T01041084  RH  026%=      5-min Rain = 0
KQU1 250057Z 09004KT 10/M09 A3016 RMK A01 T01041086  RH  025%=      5-min Rain = 0
KQU1 250058Z 09004KT 10/M09 A3016 RMK A01 T01041087  RH  025%=      5-min Rain = 0
KQU1 250059Z 09004KT 10/M09 A3016 RMK A01 T01041085  RH  026%=      5-min Rain = 0
KQU1 250100Z 09004KT 10/M09 A3016 RMK A01 T01031086  RH  026%=      5-min Rain = 0
KQU1 250101Z 09004KT 10/M09 A3016 RMK A01 T01021087  RH  026%=      5-min Rain = 0
KQU1 250102Z 09005KT 10/M09 A3017 RMK A01 T01021087  RH  026%=      5-min Rain = 0
KQU1 250103Z 09006KT 10/M09 A3017 RMK A01 T01021086  RH  026%=      5-min Rain = 0
KQU1 250104Z 09006KT 10/M09 A3017 RMK A01 T01021086  RH  026%=      5-min Rain = 0
KQU1 250105Z 10006KT 10/M09 A3017 RMK A01 T01021086  RH  026%=      5-min Rain = 0
KQU1 250106Z 09006KT 10/M09 A3017 RMK A01 T01021086  RH  026%=      5-min Rain = 0
KQU1 250107Z 09005KT 10/M09 A3017 RMK A01 T01021086  RH  026%=      5-min Rain = 0
KQU1 250108Z 09006KT 10/M09 A3017 RMK A01 T01021088  RH  025%=      5-min Rain = 0
KQU1 250109Z 09005KT 10/M09 A3017 RMK A01 T01021088  RH  025%=      5-min Rain = 0
KQU1 250110Z 09006KT 10/M09 A3017 RMK A01 T01021087  RH  026%=      5-min Rain = 0
KQU1 250111Z 09006KT 10/M09 A3017 RMK A01 T01021088  RH  025%=      5-min Rain = 0
KQU1 250112Z 09006KT 10/M09 A3017 RMK A01 T01011088  RH  025%=      5-min Rain = 0
KQU1 250113Z 09006KT 10/M09 A3017 RMK A01 T01011090  RH  025%=      5-min Rain = 0
KQU1 250114Z 09006KT 10/M09 A3017 RMK A01 T01011090  RH  025%=      5-min Rain = 0
KQU1 250115Z 09005KT 10/M09 A3017 RMK A01 T01011091  RH  025%=      5-min Rain = 0
KQU1 250116Z 09006KT 10/M09 A3017 RMK A01 T01011090  RH  025%=      5-min Rain = 0
KQU1 250117Z 09006KT 10/M09 A3017 RMK A01 T01011090  RH  025%=      5-min Rain = 0
KQU1 250118Z 09005KT 10/M09 A3018 RMK A01 T01011089  RH  025%=      5-min Rain = 0
KQU1 250119Z 09005KT 10/M09 A3018 RMK A01 T01011089  RH  025%=      5-min Rain = 0
KQU1 250120Z 09005KT 10/M09 A3018 RMK A01 T01001088  RH  026%=      5-min Rain = 0
KQU1 250121Z 09006KT 10/M09 A3018 RMK A01 T01001089  RH  025%=      5-min Rain = 0
KQU1 250122Z 08005KT 10/M09 A3018 RMK A01 T01001089  RH  025%=      5-min Rain = 0
KQU1 250123Z 09006KT 10/M09 A3018 RMK A01 T00991090  RH  025%=      5-min Rain = 0
KQU1 250124Z 09006KT 10/M09 A3018 RMK A01 T00991090  RH  025%=      5-min Rain = 0
KQU1 250125Z 09005KT 10/M09 A3018 RMK A01 T00991090  RH  026%=      5-min Rain = 0
KQU1 250126Z 08005KT 10/M09 A3018 RMK A01 T00991091  RH  025%=      5-min Rain = 0
KQU1 250127Z 08005KT 10/M09 A3018 RMK A01 T00991090  RH  026%=      5-min Rain = 0
KQU1 250128Z 09005KT 10/M09 A3018 RMK A01 T00991090  RH  025%=      5-min Rain = 0
KQU1 250129Z 09005KT 10/M09 A3018 RMK A01 T00991090  RH  025%=      5-min Rain = 0
KQU1 250130Z 09005KT 10/M09 A3018 RMK A01 T00991091  RH  025%=      5-min Rain = 0
KQU1 250131Z 08004KT 10/M09 A3019 RMK A01 T00991091  RH  025%=      5-min Rain = 0
KQU1 250132Z 08005KT 10/M09 A3019 RMK A01 T00991091  RH  025%=      5-min Rain = 0
KQU1 250133Z 08005KT 10/M09 A3019 RMK A01 T00991090  RH  025%=      5-min Rain = 0
KQU1 250134Z 08004KT 10/M09 A3019 RMK A01 T00991090  RH  025%=      5-min Rain = 0
KQU1 250135Z 08005KT 10/M09 A3019 RMK A01 T00991090  RH  025%=      5-min Rain = 0
KQU1 250136Z 08005KT 10/M09 A3019 RMK A01 T00991089  RH  026%=      5-min Rain = 0
KQU1 250137Z 08005KT 10/M09 A3019 RMK A01 T00981089  RH  026%=      5-min Rain = 0
KQU1 250138Z 08005KT 10/M09 A3019 RMK A01 T00981090  RH  026%=      5-min Rain = 0
KQU1 250139Z 09005KT 10/M09 A3019 RMK A01 T00981089  RH  026%=      5-min Rain = 0
KQU1 250140Z 08006KT 10/M09 A3019 RMK A01 T00981090  RH  026%=      5-min Rain = 0
KQU1 250141Z 09005KT 10/M09 A3019 RMK A01 T00981089  RH  026%=      5-min Rain = 0
KQU1 250142Z 09006KT 10/M09 A3019 RMK A01 T00981090  RH  026%=      5-min Rain = 0
KQU1 250143Z 08005KT 10/M09 A3019 RMK A01 T00981089  RH  026%=      5-min Rain = 0
KQU1 250144Z 08006KT 10/M09 A3019 RMK A01 T00971089  RH  026%=      5-min Rain = 0
KQU1 250145Z 08005KT 10/M09 A3019 RMK A01 T00971089  RH  026%=      5-min Rain = 0
KQU1 250146Z 08005KT 10/M09 A3019 RMK A01 T00971089  RH  026%=      5-min Rain = 0
KQU1 250147Z 08005KT 10/M09 A3019 RMK A01 T00971089  RH  026%=      5-min Rain = 0
KQU1 250148Z 09005KT 10/M09 A3019 RMK A01 T00961090  RH  026%=      5-min Rain = 0
KQU1 250149Z 09005KT 10/M09 A3019 RMK A01 T00961090  RH  026%=      5-min Rain = 0
KQU1 250150Z 08005KT 10/M09 A3019 RMK A01 T00961090  RH  026%=      5-min Rain = 0
KQU1 250151Z 08005KT 10/M09 A3019 RMK A01 T00971089  RH  026%=      5-min Rain = 0
KQU1 250152Z 08005KT 10/M09 A3019 RMK A01 T00971088  RH  026%=      5-min Rain = 0
KQU1 250153Z 08005KT 10/M09 A302 RMK A01 T00971089  RH  026%=      5-min Rain = 0
KQU1 250154Z 08005KT 10/M09 A302 RMK A01 T00971089  RH  026%=      5-min Rain = 0
KQU1 250155Z 08005KT 10/M09 A302 RMK A01 T00971089  RH  026%=      5-min Rain = 0
KQU1 250156Z 08005KT 10/M09 A302 RMK A01 T00971088  RH  026%=      5-min Rain = 0
KQU1 250157Z 08005KT 10/M09 A302 RMK A01 T00971086  RH  027%=      5-min Rain = 0
KQU1 250158Z 07004KT 10/M08 A302 RMK A01 T00961083  RH  027%=      5-min Rain = 0
KQU1 250159Z 06004KT 10/M08 A302 RMK A01 T00961083  RH  028%=      5-min Rain = 0
KQU1 250200Z 06004KT 10/M08 A302 RMK A01 T00951078  RH  029%=      5-min Rain = 0
KQU1 250201Z 05003KT 09/M08 A302 RMK A01 T00931075  RH  030%=      5-min Rain = 0
KQU1 250202Z 04003KT 09/M08 A302 RMK A01 T00921077  RH  030%=      5-min Rain = 0
KQU1 250203Z 04003KT 09/M08 A302 RMK A01 T00901083  RH  029%=      5-min Rain = 0
KQU1 250204Z 04003KT 09/M08 A302 RMK A01 T00891083  RH  029%=      5-min Rain = 0
KQU1 250205Z 04003KT 09/M09 A302 RMK A01 T00891085  RH  028%=      5-min Rain = 0
KQU1 250206Z 05003KT 09/M09 A302 RMK A01 T00881085  RH  029%=      5-min Rain = 0
KQU1 250207Z 05002KT 09/M08 A302 RMK A01 T00861083  RH  029%=      5-min Rain = 0
KQU1 250208Z 05003KT 08/M08 A302 RMK A01 T00831081  RH  031%=      5-min Rain = 0
KQU1 250209Z 05002KT 08/M08 A302 RMK A01 T00801082  RH  031%=      5-min Rain = 0
KQU1 250210Z 05003KT 08/M08 A302 RMK A01 T00791084  RH  031%=      5-min Rain = 0
KQU1 250211Z 04002KT 08/M08 A302 RMK A01 T00771082  RH  031%=      5-min Rain = 0
KQU1 250212Z 04002KT 08/M08 A3021 RMK A01 T00761083  RH  031%=      5-min Rain = 0
KQU1 250213Z 05002KT 08/M08 A3021 RMK A01 T00751083  RH  032%=      5-min Rain = 0
KQU1 250214Z 05002KT 07/M08 A3021 RMK A01 T00741083  RH  032%=      5-min Rain = 0
KQU1 250215Z 05002KT 07/M08 A3021 RMK A01 T00741084  RH  032%=      5-min Rain = 0
KQU1 250216Z 05002KT 07/M08 A3021 RMK A01 T00731083  RH  032%=      5-min Rain = 0
KQU1 250217Z 06002KT 07/M08 A3021 RMK A01 T00731084  RH  032%=      5-min Rain = 0
KQU1 250218Z 06002KT 07/M09 A3021 RMK A01 T00731085  RH  032%=      5-min Rain = 0
KQU1 250219Z 07002KT 07/M09 A3021 RMK A01 T00721085  RH  032%=      5-min Rain = 0
KQU1 250220Z 06003KT 07/M09 A3021 RMK A01 T00721086  RH  032%=      5-min Rain = 0
KQU1 250221Z 07003KT 07/M09 A3021 RMK A01 T00731087  RH  031%=      5-min Rain = 0
KQU1 250222Z 06003KT 07/M09 A3021 RMK A01 T00741087  RH  031%=      5-min Rain = 0
KQU1 250223Z 07004KT 07/M09 A3021 RMK A01 T00741086  RH  031%=      5-min Rain = 0
KQU1 250224Z 07004KT 08/M09 A3021 RMK A01 T00751085  RH  031%=      5-min Rain = 0
KQU1 250225Z 07005KT 08/M09 A3021 RMK A01 T00751086  RH  031%=      5-min Rain = 0
KQU1 250226Z 07004KT 08/M09 A3021 RMK A01 T00761087  RH  030%=      5-min Rain = 0
KQU1 250227Z 07004KT 08/M09 A3021 RMK A01 T00761087  RH  030%=      5-min Rain = 0
KQU1 250228Z 07004KT 08/M09 A3021 RMK A01 T00761087  RH  030%=      5-min Rain = 0
KQU1 250229Z 07004KT 08/M09 A3021 RMK A01 T00771087  RH  030%=      5-min Rain = 0
KQU1 250230Z 08004KT 08/M09 A3021 RMK A01 T00771087  RH  030%=      5-min Rain = 0
KQU1 250231Z 08005KT 08/M09 A3021 RMK A01 T00771087  RH  030%=      5-min Rain = 0
KQU1 250232Z 08004KT 08/M09 A3021 RMK A01 T00781086  RH  030%=      5-min Rain = 0
KQU1 250233Z 08004KT 08/M09 A3021 RMK A01 T00791086  RH  030%=      5-min Rain = 0
KQU1 250234Z 08004KT 08/M09 A3021 RMK A01 T00791085  RH  030%=      5-min Rain = 0
KQU1 250235Z 08004KT 08/M09 A3021 RMK A01 T00791085  RH  030%=      5-min Rain = 0
KQU1 250236Z 08004KT 08/M09 A3021 RMK A01 T00791085  RH  030%=      5-min Rain = 0
KQU1 250237Z 08004KT 08/M09 A3021 RMK A01 T00801085  RH  030%=      5-min Rain = 0
KQU1 250238Z 08005KT 08/M09 A3021 RMK A01 T00801085  RH  030%=      5-min Rain = 0
KQU1 250239Z 07004KT 08/M09 A3021 RMK A01 T00801085  RH  030%=      5-min Rain = 0
KQU1 250240Z 08004KT 08/M09 A3021 RMK A01 T00801086  RH  030%=      5-min Rain = 0
KQU1 250241Z 07004KT 08/M09 A3021 RMK A01 T00811086  RH  030%=      5-min Rain = 0
KQU1 250242Z 07005KT 08/M08 A3021 RMK A01 T00811084  RH  030%=      5-min Rain = 0
KQU1 250243Z 07005KT 08/M08 A3021 RMK A01 T00801084  RH  030%=      5-min Rain = 0
KQU1 250244Z 08005KT 08/M08 A3021 RMK A01 T00791082  RH  031%=      5-min Rain = 0
KQU1 250245Z 07005KT 08/M08 A3021 RMK A01 T00791082  RH  031%=      5-min Rain = 0
KQU1 250246Z 07005KT 08/M08 A3021 RMK A01 T00791081  RH  031%=      5-min Rain = 0
KQU1 250247Z 07004KT 08/M08 A3021 RMK A01 T00791080  RH  031%=      5-min Rain = 0
KQU1 250248Z 07005KT 08/M08 A3021 RMK A01 T00791079  RH  032%=      5-min Rain = 0
KQU1 250249Z 07004KT 08/M08 A3021 RMK A01 T00781078  RH  032%=      5-min Rain = 0
KQU1 250250Z 07004KT 08/M08 A3022 RMK A01 T00781077  RH  032%=      5-min Rain = 0
KQU1 250251Z 07005KT 08/M08 A3022 RMK A01 T00771075  RH  033%=      5-min Rain = 0
KQU1 250252Z 07005KT 08/M08 A3022 RMK A01 T00761075  RH  033%=      5-min Rain = 0
KQU1 250253Z 07006KT 08/M08 A3021 RMK A01 T00761078  RH  033%=      5-min Rain = 0
KQU1 250254Z 07005KT 08/M08 A3021 RMK A01 T00761078  RH  033%=      5-min Rain = 0
KQU1 250255Z 06005KT 08/M08 A3021 RMK A01 T00761079  RH  032%=      5-min Rain = 0
KQU1 250256Z 07005KT 08/M08 A3021 RMK A01 T00771081  RH  032%=      5-min Rain = 0
KQU1 250257Z 07005KT 08/M08 A3021 RMK A01 T00781083  RH  031%=      5-min Rain = 0
KQU1 250258Z 07005KT 08/M08 A3021 RMK A01 T00781082  RH  031%=      5-min Rain = 0
KQU1 250259Z 07005KT 08/M08 A3022 RMK A01 T00781084  RH  031%=      5-min Rain = 0
KQU1 250300Z 07005KT 08/M08 A3022 RMK A01 T00791083  RH  031%=      5-min Rain = 0
KQU1 250301Z 08005KT 08/M08 A3022 RMK A01 T00791083  RH  031%=      5-min Rain = 0
KQU1 250302Z 07005KT 08/M09 A3022 RMK A01 T00791086  RH  030%=      5-min Rain = 0
KQU1 250303Z 07004KT 08/M09 A3022 RMK A01 T00791085  RH  030%=      5-min Rain = 0
KQU1 250304Z 07004KT 08/M09 A3022 RMK A01 T00791086  RH  030%=      5-min Rain = 0
KQU1 250305Z 07004KT 08/M08 A3022 RMK A01 T00791084  RH  031%=      5-min Rain = 0
KQU1 250306Z 07005KT 08/M08 A3022 RMK A01 T00781082  RH  031%=      5-min Rain = 0
KQU1 250307Z 07005KT 08/M08 A3022 RMK A01 T00781080  RH  032%=      5-min Rain = 0
KQU1 250308Z 08004KT 08/M08 A3022 RMK A01 T00771080  RH  032%=      5-min Rain = 0
KQU1 250309Z 07005KT 08/M08 A3022 RMK A01 T00771078  RH  032%=      5-min Rain = 0
KQU1 250310Z 08005KT 08/M08 A3022 RMK A01 T00761083  RH  031%=      5-min Rain = 0
KQU1 250311Z 08005KT 08/M09 A3022 RMK A01 T00771085  RH  031%=      5-min Rain = 0
KQU1 250312Z 08004KT 08/M08 A3022 RMK A01 T00771084  RH  031%=      5-min Rain = 0
KQU1 250313Z 07005KT 08/M08 A3022 RMK A01 T00771083  RH  031%=      5-min Rain = 0
KQU1 250314Z 07004KT 08/M08 A3022 RMK A01 T00771082  RH  031%=      5-min Rain = 0
KQU1 250315Z 07004KT 08/M08 A3022 RMK A01 T00771080  RH  032%=      5-min Rain = 0
KQU1 250316Z 07004KT 08/M08 A3022 RMK A01 T00761081  RH  032%=      5-min Rain = 0
KQU1 250317Z 08004KT 08/M08 A3022 RMK A01 T00761082  RH  032%=      5-min Rain = 0
KQU1 250318Z 07003KT 08/M08 A3022 RMK A01 T00761081  RH  032%=      5-min Rain = 0
KQU1 250319Z 08005KT 08/M08 A3022 RMK A01 T00761084  RH  031%=      5-min Rain = 0
KQU1 250320Z 08005KT 08/M09 A3022 RMK A01 T00771087  RH  030%=      5-min Rain = 0
KQU1 250321Z 09005KT 08/M09 A3022 RMK A01 T00781088  RH  030%=      5-min Rain = 0
KQU1 250322Z 08005KT 08/M09 A3022 RMK A01 T00781087  RH  030%=      5-min Rain = 0
KQU1 250323Z 08004KT 08/M09 A3022 RMK A01 T00781087  RH  030%=      5-min Rain = 0
KQU1 250324Z 09004KT 08/M09 A3022 RMK A01 T00771086  RH  030%=      5-min Rain = 0
KQU1 250325Z 09004KT 08/M09 A3022 RMK A01 T00771089  RH  030%=      5-min Rain = 0
KQU1 250326Z 08005KT 08/M09 A3022 RMK A01 T00771089  RH  030%=      5-min Rain = 0
KQU1 250327Z 09005KT 08/M09 A3022 RMK A01 T00771090  RH  030%=      5-min Rain = 0
KQU1 250328Z 09006KT 08/M09 A3022 RMK A01 T00771091  RH  029%=      5-min Rain = 0
KQU1 250329Z 09006KT 08/M09 A3022 RMK A01 T00771092  RH  029%=      5-min Rain = 0
KQU1 250330Z 09005KT 08/M09 A3022 RMK A01 T00771091  RH  029%=      5-min Rain = 0
KQU1 250331Z 08004KT 08/M09 A3022 RMK A01 T00771090  RH  030%=      5-min Rain = 0
KQU1 250332Z 09006KT 08/M09 A3022 RMK A01 T00761091  RH  029%=      5-min Rain = 0
KQU1 250333Z 09005KT 08/M09 A3022 RMK A01 T00761090  RH  030%=      5-min Rain = 0
KQU1 250334Z 09006KT 08/M09 A3022 RMK A01 T00761091  RH  029%=      5-min Rain = 0
KQU1 250335Z 08005KT 08/M09 A3022 RMK A01 T00761091  RH  029%=      5-min Rain = 0
KQU1 250336Z 07005KT 08/M09 A3023 RMK A01 T00761090  RH  030%=      5-min Rain = 0
KQU1 250337Z 07005KT 08/M09 A3023 RMK A01 T00761088  RH  030%=      5-min Rain = 0
KQU1 250338Z 08005KT 08/M09 A3023 RMK A01 T00761089  RH  030%=      5-min Rain = 0
KQU1 250339Z 09004KT 08/M09 A3023 RMK A01 T00761090  RH  030%=      5-min Rain = 0
KQU1 250340Z 08005KT 08/M09 A3023 RMK A01 T00761090  RH  030%=      5-min Rain = 0
KQU1 250341Z 08004KT 08/M09 A3023 RMK A01 T00761091  RH  030%=      5-min Rain = 0
KQU1 250342Z 08005KT 08/M09 A3023 RMK A01 T00761090  RH  030%=      5-min Rain = 0
KQU1 250343Z 09003KT 08/M09 A3023 RMK A01 T00761089  RH  030%=      5-min Rain = 0
KQU1 250344Z 09004KT 08/M09 A3023 RMK A01 T00751090  RH  030%=      5-min Rain = 0
KQU1 250345Z 09005KT 08/M09 A3023 RMK A01 T00751091  RH  030%=      5-min Rain = 0
KQU1 250346Z 09004KT 08/M09 A3023 RMK A01 T00751090  RH  030%=      5-min Rain = 0
KQU1 250347Z 09004KT 07/M09 A3023 RMK A01 T00741090  RH  030%=      5-min Rain = 0
KQU1 250348Z 09005KT 07/M09 A3023 RMK A01 T00741091  RH  030%=      5-min Rain = 0
KQU1 250349Z 09005KT 07/M09 A3023 RMK A01 T00741091  RH  030%=      5-min Rain = 0
KQU1 250350Z 09005KT 07/M09 A3023 RMK A01 T00741091  RH  030%=      5-min Rain = 0
KQU1 250351Z 09005KT 07/M09 A3023 RMK A01 T00731090  RH  030%=      5-min Rain = 0
KQU1 250352Z 10005KT 07/M09 A3023 RMK A01 T00721089  RH  031%=      5-min Rain = 0
KQU1 250353Z 10006KT 07/M09 A3023 RMK A01 T00721091  RH  030%=      5-min Rain = 0
KQU1 250354Z 10006KT 07/M09 A3023 RMK A01 T00721090  RH  031%=      5-min Rain = 0
KQU1 250355Z 10006KT 07/M09 A3023 RMK A01 T00711089  RH  031%=      5-min Rain = 0
KQU1 250356Z 10006KT 07/M09 A3023 RMK A01 T00701089  RH  031%=      5-min Rain = 0
KQU1 250357Z 10006KT 07/M09 A3023 RMK A01 T00701090  RH  031%=      5-min Rain = 0
KQU1 250358Z 10006KT 07/M09 A3023 RMK A01 T00691090  RH  031%=      5-min Rain = 0
KQU1 250359Z 10005KT 07/M09 A3024 RMK A01 T00691090  RH  031%=      5-min Rain = 0
KQU1 250400Z 10005KT 07/M09 A3023 RMK A01 T00691089  RH  031%=      5-min Rain = 0
KQU1 250401Z 10005KT 07/M09 A3023 RMK A01 T00681089  RH  032%=      5-min Rain = 0
KQU1 250402Z 10007KT 07/M09 A3024 RMK A01 T00671090  RH  032%=      5-min Rain = 0
KQU1 250403Z 10007KT 07/M09 A3024 RMK A01 T00671090  RH  032%=      5-min Rain = 0
KQU1 250404Z 10005KT 07/M09 A3024 RMK A01 T00671089  RH  032%=      5-min Rain = 0
KQU1 250405Z 10006KT 07/M09 A3024 RMK A01 T00661089  RH  032%=      5-min Rain = 0
KQU1 250406Z 10006KT 07/M09 A3024 RMK A01 T00661088  RH  032%=      5-min Rain = 0
KQU1 250407Z 10006KT 07/M09 A3024 RMK A01 T00651089  RH  032%=      5-min Rain = 0
KQU1 250408Z 10006KT 07/M09 A3024 RMK A01 T00651088  RH  033%=      5-min Rain = 0
KQU1 250409Z 10007KT 06/M09 A3024 RMK A01 T00641089  RH  033%=      5-min Rain = 0
KQU1 250410Z 10006KT 06/M09 A3024 RMK A01 T00641088  RH  033%=      5-min Rain = 0
KQU1 250411Z 10006KT 06/M09 A3024 RMK A01 T00631088  RH  033%=      5-min Rain = 0
KQU1 250412Z 10006KT 06/M09 A3024 RMK A01 T00631088  RH  033%=      5-min Rain = 0
KQU1 250413Z 10006KT 06/M09 A3024 RMK A01 T00621087  RH  033%=      5-min Rain = 0
KQU1 250414Z 10006KT 06/M09 A3024 RMK A01 T00621087  RH  034%=      5-min Rain = 0
KQU1 250415Z 09005KT 06/M09 A3024 RMK A01 T00611087  RH  034%=      5-min Rain = 0
KQU1 250416Z 09006KT 06/M09 A3024 RMK A01 T00611088  RH  033%=      5-min Rain = 0
KQU1 250417Z 10006KT 06/M09 A3024 RMK A01 T00611088  RH  033%=      5-min Rain = 0
KQU1 250418Z 09006KT 06/M09 A3024 RMK A01 T00611087  RH  034%=      5-min Rain = 0
KQU1 250419Z 10007KT 06/M09 A3024 RMK A01 T00611088  RH  033%=      5-min Rain = 0
KQU1 250420Z 10006KT 06/M09 A3024 RMK A01 T00611088  RH  033%=      5-min Rain = 0
KQU1 250421Z 10007KT 06/M09 A3024 RMK A01 T00611088  RH  034%=      5-min Rain = 0
KQU1 250422Z 10006KT 06/M09 A3024 RMK A01 T00611088  RH  034%=      5-min Rain = 0
KQU1 250423Z 10006KT 06/M09 A3024 RMK A01 T00601088  RH  034%=      5-min Rain = 0
KQU1 250424Z 10006KT 06/M09 A3024 RMK A01 T00601088  RH  034%=      5-min Rain = 0
KQU1 250425Z 10006KT 06/M09 A3024 RMK A01 T00601087  RH  034%=      5-min Rain = 0
KQU1 250426Z 10006KT 06/M09 A3024 RMK A01 T00601087  RH  034%=      5-min Rain = 0
KQU1 250427Z 10007KT 06/M09 A3024 RMK A01 T00591087  RH  034%=      5-min Rain = 0
KQU1 250428Z 10006KT 06/M09 A3024 RMK A01 T00591085  RH  035%=      5-min Rain = 0
KQU1 250429Z 09006KT 06/M09 A3024 RMK A01 T00581086  RH  035%=      5-min Rain = 0
KQU1 250430Z 10006KT 06/M08 A3024 RMK A01 T00581084  RH  035%=      5-min Rain = 0
KQU1 250431Z 10006KT 06/M09 A3024 RMK A01 T00571085  RH  035%=      5-min Rain = 0
KQU1 250432Z 10006KT 06/M08 A3024 RMK A01 T00571084  RH  035%=      5-min Rain = 0
KQU1 250433Z 10004KT 06/M08 A3024 RMK A01 T00561083  RH  036%=      5-min Rain = 0
KQU1 250434Z 10005KT 06/M08 A3024 RMK A01 T00551084  RH  036%=      5-min Rain = 0
KQU1 250435Z 10006KT 06/M09 A3024 RMK A01 T00551085  RH  036%=      5-min Rain = 0
KQU1 250436Z 10005KT 06/M08 A3024 RMK A01 T00551084  RH  036%=      5-min Rain = 0
KQU1 250437Z 10006KT 06/M08 A3024 RMK A01 T00551084  RH  036%=      5-min Rain = 0
KQU1 250438Z 09006KT 06/M08 A3024 RMK A01 T00551084  RH  036%=      5-min Rain = 0
KQU1 250439Z 10005KT 06/M08 A3024 RMK A01 T00551083  RH  036%=      5-min Rain = 0
KQU1 250440Z 10006KT 05/M08 A3024 RMK A01 T00541084  RH  036%=      5-min Rain = 0
KQU1 250441Z 10005KT 05/M08 A3024 RMK A01 T00541083  RH  036%=      5-min Rain = 0
KQU1 250442Z 10006KT 05/M08 A3024 RMK A01 T00541084  RH  036%=      5-min Rain = 0
KQU1 250443Z 10005KT 05/M08 A3024 RMK A01 T00541083  RH  037%=      5-min Rain = 0
KQU1 250444Z 10005KT 05/M08 A3024 RMK A01 T00531084  RH  036%=      5-min Rain = 0
KQU1 250445Z 10005KT 05/M08 A3024 RMK A01 T00531083  RH  037%=      5-min Rain = 0
KQU1 250446Z 10005KT 05/M08 A3024 RMK A01 T00521082  RH  037%=      5-min Rain = 0
KQU1 250447Z 10005KT 05/M08 A3024 RMK A01 T00521083  RH  037%=      5-min Rain = 0
KQU1 250448Z 10005KT 05/M08 A3024 RMK A01 T00511082  RH  037%=      5-min Rain = 0
KQU1 250449Z 10004KT 05/M08 A3024 RMK A01 T00511080  RH  038%=      5-min Rain = 0
KQU1 250450Z 10004KT 05/M08 A3024 RMK A01 T00501081  RH  038%=      5-min Rain = 0
KQU1 250451Z 10005KT 05/M08 A3024 RMK A01 T00491081  RH  038%=      5-min Rain = 0
KQU1 250452Z 10005KT 05/M08 A3024 RMK A01 T00491080  RH  039%=      5-min Rain = 0
KQU1 250453Z 10005KT 05/M08 A3024 RMK A01 T00491081  RH  039%=      5-min Rain = 0
KQU1 250454Z 10005KT 05/M08 A3023 RMK A01 T00481081  RH  039%=      5-min Rain = 0
KQU1 250455Z 09004KT 05/M08 A3023 RMK A01 T00481080  RH  039%=      5-min Rain = 0
KQU1 250456Z 10005KT 05/M08 A3023 RMK A01 T00481081  RH  039%=      5-min Rain = 0
KQU1 250457Z 09005KT 05/M08 A3023 RMK A01 T00481080  RH  039%=      5-min Rain = 0
KQU1 250458Z 10005KT 05/M08 A3023 RMK A01 T00481080  RH  039%=      5-min Rain = 0
KQU1 250459Z 10005KT 05/M08 A3023 RMK A01 T00471080  RH  039%=      5-min Rain = 0
KQU1 250500Z 10006KT 05/M08 A3023 RMK A01 T00471080  RH  039%=      5-min Rain = 0
KQU1 250501Z 10005KT 05/M08 A3024 RMK A01 T00471080  RH  039%=      5-min Rain = 0
KQU1 250502Z 10004KT 05/M08 A3024 RMK A01 T00471079  RH  039%=      5-min Rain = 0
KQU1 250503Z 10005KT 05/M08 A3024 RMK A01 T00471080  RH  039%=      5-min Rain = 0
KQU1 250504Z 10006KT 05/M08 A3024 RMK A01 T00471081  RH  039%=      5-min Rain = 0
KQU1 250505Z 10005KT 05/M08 A3024 RMK A01 T00471080  RH  039%=      5-min Rain = 0
KQU1 250506Z 10005KT 05/M08 A3024 RMK A01 T00471080  RH  039%=      5-min Rain = 0
KQU1 250507Z 09005KT 05/M08 A3024 RMK A01 T00471079  RH  040%=      5-min Rain = 0
KQU1 250508Z 10006KT 05/M08 A3024 RMK A01 T00461080  RH  039%=      5-min Rain = 0
KQU1 250509Z 09006KT 05/M08 A3024 RMK A01 T00461079  RH  040%=      5-min Rain = 0
KQU1 250510Z 09006KT 05/M08 A3024 RMK A01 T00461079  RH  040%=      5-min Rain = 0
KQU1 250511Z 10006KT 05/M08 A3024 RMK A01 T00461079  RH  040%=      5-min Rain = 0
KQU1 250512Z 09006KT 05/M08 A3024 RMK A01 T00461079  RH  040%=      5-min Rain = 0
KQU1 250513Z 09006KT 05/M08 A3024 RMK A01 T00461078  RH  040%=      5-min Rain = 0
KQU1 250514Z 09006KT 05/M08 A3024 RMK A01 T00451079  RH  040%=      5-min Rain = 0
KQU1 250515Z 09006KT 05/M08 A3024 RMK A01 T00451079  RH  040%=      5-min Rain = 0
KQU1 250516Z 09007KT 05/M08 A3024 RMK A01 T00461079  RH  040%=      5-min Rain = 0
KQU1 250517Z 09007KT 05/M08 A3024 RMK A01 T00461079  RH  040%=      5-min Rain = 0
KQU1 250518Z 09007KT 05/M08 A3024 RMK A01 T00461078  RH  040%=      5-min Rain = 0
KQU1 250519Z 10006KT 05/M08 A3024 RMK A01 T00461078  RH  040%=      5-min Rain = 0
KQU1 250520Z 09006KT 05/M08 A3024 RMK A01 T00461078  RH  040%=      5-min Rain = 0
KQU1 250521Z 10007KT 05/M08 A3024 RMK A01 T00461078  RH  040%=      5-min Rain = 0
KQU1 250522Z 09006KT 05/M08 A3024 RMK A01 T00461077  RH  040%=      5-min Rain = 0
KQU1 250523Z 09006KT 05/M08 A3024 RMK A01 T00461078  RH  040%=      5-min Rain = 0
KQU1 250524Z 10007KT 05/M08 A3024 RMK A01 T00461077  RH  040%=      5-min Rain = 0
KQU1 250525Z 09006KT 05/M08 A3024 RMK A01 T00461078  RH  040%=      5-min Rain = 0
KQU1 250526Z 09007KT 05/M08 A3024 RMK A01 T00461077  RH  040%=      5-min Rain = 0
KQU1 250527Z 09006KT 05/M08 A3024 RMK A01 T00461077  RH  040%=      5-min Rain = 0
KQU1 250528Z 09006KT 05/M08 A3024 RMK A01 T00461077  RH  040%=      5-min Rain = 0
KQU1 250529Z 09006KT 05/M08 A3024 RMK A01 T00461077  RH  040%=      5-min Rain = 0
KQU1 250530Z 09006KT 05/M08 A3024 RMK A01 T00461077  RH  041%=      5-min Rain = 0
KQU1 250531Z 09006KT 05/M08 A3024 RMK A01 T00461078  RH  040%=      5-min Rain = 0
KQU1 250532Z 09006KT 05/M08 A3024 RMK A01 T00461078  RH  040%=      5-min Rain = 0
KQU1 250533Z 09005KT 05/M08 A3024 RMK A01 T00461077  RH  041%=      5-min Rain = 0
KQU1 250534Z 09006KT 05/M08 A3024 RMK A01 T00461077  RH  040%=      5-min Rain = 0
KQU1 250535Z 09006KT 05/M08 A3024 RMK A01 T00451077  RH  041%=      5-min Rain = 0
KQU1 250536Z 09005KT 05/M08 A3024 RMK A01 T00451076  RH  041%=      5-min Rain = 0
KQU1 250537Z 09006KT 05/M08 A3024 RMK A01 T00451077  RH  041%=      5-min Rain = 0
KQU1 250538Z 09005KT 05/M08 A3024 RMK A01 T00451077  RH  041%=      5-min Rain = 0
KQU1 250539Z 09007KT 05/M08 A3024 RMK A01 T00451077  RH  041%=      5-min Rain = 0
KQU1 250540Z 09006KT 05/M08 A3024 RMK A01 T00451076  RH  041%=      5-min Rain = 0
KQU1 250541Z 09006KT 05/M08 A3024 RMK A01 T00451077  RH  041%=      5-min Rain = 0
KQU1 250542Z 09006KT 05/M08 A3024 RMK A01 T00451076  RH  041%=      5-min Rain = 0
KQU1 250543Z 09006KT 05/M08 A3024 RMK A01 T00451076  RH  041%=      5-min Rain = 0
KQU1 250544Z 09006KT 04/M08 A3024 RMK A01 T00441076  RH  041%=      5-min Rain = 0
KQU1 250545Z 10006KT 04/M08 A3024 RMK A01 T00441076  RH  041%=      5-min Rain = 0
KQU1 250546Z 10005KT 04/M08 A3024 RMK A01 T00441075  RH  042%=      5-min Rain = 0
KQU1 250547Z 09005KT 04/M08 A3024 RMK A01 T00431075  RH  042%=      5-min Rain = 0
KQU1 250548Z 09005KT 04/M08 A3024 RMK A01 T00431076  RH  042%=      5-min Rain = 0
KQU1 250549Z 09007KT 04/M08 A3024 RMK A01 T00431076  RH  042%=      5-min Rain = 0
KQU1 250550Z 09007KT 04/M08 A3024 RMK A01 T00431075  RH  042%=      5-min Rain = 0
KQU1 250551Z 09006KT 04/M08 A3024 RMK A01 T00431075  RH  042%=      5-min Rain = 0
KQU1 250552Z 10006KT 04/M07 A3024 RMK A01 T00431074  RH  042%=      5-min Rain = 0
KQU1 250553Z 08006KT 04/M08 A3024 RMK A01 T00431075  RH  042%=      5-min Rain = 0
KQU1 250554Z 09005KT 04/M08 A3024 RMK A01 T00431075  RH  042%=      5-min Rain = 0
KQU1 250555Z 09007KT 04/M08 A3024 RMK A01 T00431075  RH  042%=      5-min Rain = 0
KQU1 250556Z 09006KT 04/M08 A3024 RMK A01 T00431075  RH  042%=      5-min Rain = 0
KQU1 250557Z 08005KT 04/M07 A3024 RMK A01 T00431074  RH  042%=      5-min Rain = 0
KQU1 250558Z 09006KT 04/M07 A3024 RMK A01 T00431074  RH  042%=      5-min Rain = 0
KQU1 250559Z 10006KT 04/M08 A3024 RMK A01 T00431075  RH  042%=      5-min Rain = 0

Page generated in 0.0638 seconds.